Flight Track Log - Related Links

Times and Time Zones

All times are in EST time to prevent confusion due to time zone crossing. See the AFL150 flight status page for this flight to view local times or setup timezone preferences in your user account.

Time Position Orientation Groundspeed Altitude Reporting Facility
EST Latitude Longitude Course Direction KTS MPH feet Rate Location/Type
Sun 04:54:54 AM 55.9720 37.4220 209° Southwest 130 150  Level FlightAware ADS-B
Sun 04:55:34 AM 55.9650 37.3700 256° West 152 175 2,300 2,883 Climbing FlightAware ADS-B
Sun 04:56:11 AM 55.9590 37.3280 256° West 147 169 3,700 1,612 Climbing FlightAware ADS-B
Sun 04:56:41 AM 55.9530 37.2910 254° West 180 207 4,100 1,183 Climbing FlightAware ADS-B
Sun 04:57:22 AM 55.9440 37.2210 257° West 217 250 5,100 1,870 Climbing FlightAware ADS-B
Sun 04:57:58 AM 55.9510 37.1620 282° West 216 249 6,500 2,282 Climbing FlightAware ADS-B
Sun 04:58:33 AM 55.9830 37.1230 326° Northwest 252 290 7,800 2,215 Climbing FlightAware ADS-B
Sun 04:59:03 AM 56.0190 37.1360 11° North 299 344 8,900 2,215 Climbing FlightAware ADS-B
Sun 04:59:38 AM 56.0530 37.2060 49° Northeast 326 375 10,200 1,440 Climbing FlightAware ADS-B
Sun 05:00:43 AM 56.1180 37.3550 52° Northeast 390 449 11,300 1,140 Climbing FlightAware ADS-B
Sun 05:01:18 AM 56.1590 37.4490 52° Northeast 412 474 12,100 1,901 Climbing FlightAware ADS-B
Sun 05:02:24 AM 56.2450 37.6100 46° Northeast 415 478 14,500 2,147 Climbing FlightAware ADS-B
Sun 05:02:53 AM 56.2870 37.6820 44° Northeast 417 480 15,500 2,000 Climbing FlightAware ADS-B
Sun 05:03:24 AM 56.3360 37.7250 26° Northeast 385 443 16,500 2,066 Climbing FlightAware ADS-B
Sun 05:03:54 AM 56.3890 37.7430 11° North 386 444 17,600 1,969 Climbing FlightAware ADS-B
Sun 05:04:28 AM 56.4500 37.7670 12° North 393 452 18,600 1,784 Climbing FlightAware ADS-B
Sun 05:05:08 AM 56.5210 37.7940 12° North 400 460 19,800 1,650 Climbing FlightAware ADS-B
Sun 05:05:48 AM 56.5960 37.8230 12° North 409 471 20,800 1,620 Climbing FlightAware ADS-B
Sun 05:06:48 AM 56.7070 37.8660 12° North 415 478 22,500 1,832 Climbing FlightAware ADS-B
Sun 05:07:23 AM 56.7720 37.8910 12° North 412 474 23,700 1,600 Climbing FlightAware ADS-B
Sun 05:08:03 AM 56.8470 37.9200 12° North 418 481 24,500 1,280 Climbing FlightAware ADS-B
Sun 05:08:38 AM 56.9140 37.9460 12° North 422 486 25,300 1,137 Climbing FlightAware ADS-B
Sun 05:09:38 AM 57.0280 37.9900 12° North 427 491 26,300 947 Climbing FlightAware ADS-B
Sun 05:10:13 AM 57.0960 38.0000 North 424 488 26,800 1,040 Climbing FlightAware ADS-B
Sun 05:10:53 AM 57.1750 38.0020 North 427 491 27,600 1,183 Climbing FlightAware ADS-B
Sun 05:11:24 AM 57.2350 38.0050 North 429 494 28,200 1,108 Climbing FlightAware ADS-B
Sun 05:11:58 AM 57.3030 38.0080 North 430 495 28,800 1,054 Climbing FlightAware ADS-B
Sun 05:12:38 AM 57.3840 38.0120 North 432 497 29,500 1,014 Climbing FlightAware ADS-B
Sun 05:13:09 AM 57.4430 38.0150 North 430 495 30,000 1,108 Climbing FlightAware ADS-B
Sun 05:13:43 AM 57.5120 38.0170 North 426 490 30,700 1,079 Climbing FlightAware ADS-B
Sun 05:14:38 AM 57.6200 38.0200 North 424 488 31,600 1,011 Climbing FlightAware ADS-B
Sun 05:15:18 AM 57.6990 38.0230 North 424 488 32,300 1,029 Climbing FlightAware ADS-B
Sun 05:15:48 AM 57.7570 38.0250 North 422 486 32,800 1,040 Climbing FlightAware ADS-B
Sun 05:16:33 AM 57.8430 38.0290 North 417 480 33,600 800 Climbing FlightAware ADS-B
Sun 05:17:18 AM 57.9310 38.0330 North 414 476 34,000 282 Climbing FlightAware ADS-B
Sun 05:17:58 AM 58.0060 38.0360 North 412 474 34,000  Level FlightAware ADS-B
Sun 05:18:33 AM 58.0730 38.0380 North 410 472 34,000  Level FlightAware ADS-B
Sun 05:19:13 AM 58.1470 38.0410 North 409 471 34,000  Level FlightAware ADS-B
Sun 05:19:48 AM 58.2140 38.0440 North 409 471 34,000  Level FlightAware ADS-B
Sun 05:20:23 AM 58.2810 38.0470 North 411 473 34,000  Level FlightAware ADS-B
Sun 05:21:13 AM 58.3760 38.0510 North 414 476 34,000  Level FlightAware ADS-B
Sun 05:22:23 AM 58.5110 38.0560 North 419 482 34,000  Level FlightAware ADS-B
Sun 05:22:48 AM 58.5590 38.0590 North 420 483 34,000  Level FlightAware ADS-B
Sun 05:23:28 AM 58.6340 38.0620 North 422 486 34,000  Level FlightAware ADS-B
Sun 05:24:48 AM 58.7900 38.0580 359° North 416 479 34,000  Level FlightAware ADS-B
Sun 05:25:28 AM 58.8670 38.0520 358° North 418 481 34,000  Level FlightAware ADS-B
Sun 05:25:58 AM 58.9260 38.0470 357° North 419 482 34,000  Level FlightAware ADS-B
Sun 05:26:38 AM 59.0020 38.0410 358° North 420 483 34,000  Level FlightAware ADS-B
Sun 05:27:18 AM 59.0790 38.0350 358° North 420 483 34,000  Level FlightAware ADS-B
Sun 05:27:54 AM 59.1500 38.0300 358° North 420 483 34,000  Level FlightAware ADS-B
Sun 05:28:34 AM 59.2270 38.0240 358° North 420 483 34,000  Level FlightAware ADS-B
Sun 05:29:10 AM 59.2960 38.0130 355° North 412 474 34,000  Level FlightAware ADS-B
Sun 05:29:43 AM 59.3520 37.9930 350° North 412 474 34,000  Level FlightAware ADS-B
Sun 05:30:10 AM 59.4040 37.9750 350° North 416 479 34,000  Level FlightAware ADS-B
Sun 05:31:01 AM 59.5050 37.9410 350° North 415 478 34,000  Level FlightAware ADS-B
Sun 05:31:42 AM 59.5730 37.9170 350° North 415 478 34,000  Level FlightAware ADS-B
Sun 05:32:07 AM 59.6280 37.8980 350° North 411 473 34,000  Level FlightAware ADS-B
Sun 05:32:46 AM 59.7030 37.8720 350° North 410 472 34,000  Level FlightAware ADS-B
Sun 05:33:16 AM 59.7520 37.8550 350° North 410 472 34,000  Level FlightAware ADS-B
Sun 05:33:54 AM 59.8120 37.8310 349° North 410 472 34,000  Level FlightAware ADS-B
Sun 05:34:36 AM 59.9080 37.8000 351° North 410 472 34,000  Level FlightAware ADS-B
Sun 05:35:21 AM 59.9880 37.7710 350° North 411 473 34,000  Level FlightAware ADS-B
Sun 05:35:56 AM 60.0530 37.7410 347° North 412 474 34,000  Level FlightAware ADS-B
Sun 05:36:31 AM 60.1170 37.7040 344° North 407 468 34,000  Level FlightAware ADS-B
Sun 05:37:11 AM 60.1900 37.6630 344° North 412 474 34,000  Level FlightAware ADS-B
Sun 05:37:37 AM 60.2360 37.6370 344° North 415 478 34,000  Level FlightAware ADS-B
Sun 05:39:01 AM 60.3920 37.5480 344° North 415 478 34,000  Level FlightAware ADS-B
Sun 05:39:36 AM 60.4560 37.5110 344° North 415 478 34,000  Level FlightAware ADS-B
Sun 05:40:12 AM 60.5190 37.4750 344° North 415 478 34,000  Level FlightAware ADS-B
Sun 05:40:41 AM 60.5740 37.4430 344° North 420 483 34,000  Level FlightAware ADS-B
Sun 05:41:22 AM 60.6500 37.3990 344° North 425 489 34,000  Level FlightAware ADS-B
Sun 05:41:56 AM 60.7200 37.3580 344° North 424 488 34,000  Level FlightAware ADS-B
Sun 05:42:26 AM 60.7700 37.3290 344° North 424 488 34,000  Level FlightAware ADS-B
Sun 05:43:31 AM 60.9000 37.2510 344° North 427 491 34,000  Level FlightAware ADS-B
Sun 05:44:06 AM 60.9650 37.2130 344° North 427 491 34,000  Level FlightAware ADS-B
Sun 05:44:36 AM 61.0170 37.1820 344° North 431 496 34,000  Level FlightAware ADS-B
Sun 05:45:36 AM 61.1400 37.1080 344° North 442 509 34,000  Level FlightAware ADS-B
Sun 05:46:01 AM 61.1880 37.0790 344° North 442 509 34,000  Level FlightAware ADS-B
Sun 05:46:36 AM 61.2560 37.0370 343° North 444 511 34,000  Level FlightAware ADS-B
Sun 05:47:06 AM 61.3160 37.0010 344° North 442 509 34,000  Level FlightAware ADS-B
Sun 05:48:06 AM 61.4330 36.9310 344° North 440 506 34,000  Level FlightAware ADS-B
Sun 05:49:11 AM 61.5600 36.8530 344° North 435 501 34,000  Level FlightAware ADS-B
Sun 05:50:26 AM 61.7020 36.7650 344° North 433 498 34,000  Level FlightAware ADS-B
Sun 05:51:01 AM 61.7700 36.7230 344° North 433 498 34,000  Level FlightAware ADS-B
Sun 05:51:36 AM 61.8380 36.6800 343° North 434 499 34,000  Level FlightAware ADS-B
Sun 05:52:16 AM 61.9150 36.6320 344° North 435 501 34,000  Level FlightAware ADS-B
Sun 05:52:46 AM 61.9730 36.5950 343° North 435 501 34,000  Level FlightAware ADS-B
Sun 05:53:56 AM 62.1060 36.5100 343° North 439 505 34,000  Level FlightAware ADS-B
Sun 05:54:36 AM 62.1790 36.4640 344° North 442 509 34,000  Level FlightAware ADS-B
Sun 05:55:16 AM 62.2640 36.4090 343° North 441 507 34,000  Level FlightAware ADS-B
Sun 05:55:56 AM 62.3420 36.3580 343° North 442 509 34,000  Level FlightAware ADS-B
Sun 05:56:26 AM 62.4000 36.3200 343° North 443 510 34,000  Level FlightAware ADS-B
Sun 05:57:06 AM 62.4770 36.2700 343° North 443 510 34,000  Level FlightAware ADS-B
Sun 05:57:31 AM 62.5260 36.2370 343° North 444 511 34,000  Level FlightAware ADS-B
Sun 05:58:01 AM 62.5860 36.1980 343° North 444 511 34,000  Level FlightAware ADS-B
Sun 05:58:36 AM 62.6520 36.1540 343° North 444 511 34,000  Level FlightAware ADS-B
Sun 05:59:41 AM 62.7810 36.0680 343° North 447 514 34,000  Level FlightAware ADS-B
Sun 06:00:21 AM 62.8610 36.0140 343° North 449 517 34,000  Level FlightAware ADS-B
Sun 06:00:56 AM 62.9310 35.9670 343° North 450 518 34,000  Level FlightAware ADS-B
Sun 06:01:31 AM 62.9990 35.9200 343° North 450 518 34,000  Level FlightAware ADS-B
Sun 06:02:21 AM 63.0940 35.8550 343° North 449 517 34,000  Level FlightAware ADS-B
Sun 06:02:51 AM 63.1530 35.8150 343° North 451 519 34,000  Level FlightAware ADS-B
Sun 06:03:51 AM 63.2760 35.7290 343° North 452 520 34,000  Level FlightAware ADS-B
Sun 06:04:31 AM 63.3520 35.6770 343° North 454 522 34,000  Level FlightAware ADS-B
Sun 06:05:11 AM 63.4320 35.6210 343° North 457 526 34,000  Level FlightAware ADS-B
Sun 06:05:46 AM 63.5030 35.5710 343° North 458 527 34,000  Level FlightAware ADS-B
Sun 06:06:16 AM 63.5600 35.5310 343° North 458 527 34,000  Level FlightAware ADS-B
Sun 06:07:01 AM 63.6520 35.4660 343° North 457 526 34,000  Level FlightAware ADS-B
Sun 06:07:37 AM 63.7290 35.4110 342° North 455 524 34,000  Level FlightAware ADS-B
Sun 06:08:14 AM 63.8020 35.3590 343° North 453 521 34,000  Level FlightAware ADS-B
Sun 06:08:38 AM 63.8530 35.3220 342° North 451 519 34,000  Level FlightAware ADS-B
Sun 06:09:54 AM 64.0020 35.2130 342° North 448 516 34,000  Level FlightAware ADS-B
Sun 06:10:55 AM 64.1200 35.1260 342° North 447 514 34,000  Level FlightAware ADS-B
Sun 06:11:09 AM 64.1490 35.1050 342° North 447 514 34,000  Level FlightAware ADS-B
Sun 06:12:20 AM 64.2850 35.0030 342° North 448 516 34,000  Level FlightAware ADS-B
Sun 06:13:24 AM 64.4140 34.9060 342° North 451 519 34,000  Level FlightAware ADS-B
Sun 06:13:54 AM 64.4740 34.8600 342° North 451 519 34,000  Level FlightAware ADS-B
Sun 06:14:29 AM 64.5440 34.8070 342° North 452 520 34,000  Level FlightAware ADS-B
Sun 06:14:59 AM 64.6020 34.7620 342° North 454 522 34,000  Level FlightAware ADS-B
Sun 06:15:45 AM 64.6820 34.7010 342° North 455 524 34,000  Level FlightAware ADS-B
Sun 06:16:20 AM 64.7580 34.6420 342° North 455 524 34,000  Level FlightAware ADS-B
Sun 06:17:09 AM 64.8610 34.5620 342° North 455 524 34,000  Level FlightAware ADS-B
Sun 06:17:49 AM 64.9390 34.5000 341° North 455 524 34,000  Level FlightAware ADS-B
Sun 06:18:24 AM 65.0080 34.4530 344° North 459 528 34,000  Level FlightAware ADS-B
Sun 06:18:54 AM 65.0720 34.4150 346° North 460 529 34,000  Level FlightAware ADS-B
Sun 06:19:45 AM 65.1700 34.3560 346° North 461 531 34,000  Level FlightAware ADS-B
Sun 06:20:09 AM 65.2270 34.3200 345° North 460 529 34,000  Level FlightAware ADS-B
Sun 06:20:59 AM 65.3270 34.2580 345° North 460 529 34,000  Level FlightAware ADS-B
Sun 06:21:49 AM 65.4340 34.1900 345° North 458 527 34,000  Level FlightAware ADS-B
Sun 06:22:15 AM 65.4790 34.1610 345° North 458 527 34,000  Level FlightAware ADS-B
Sun 06:23:15 AM 65.5830 34.0930 345° North 458 527 34,000  Level FlightAware ADS-B
Sun 06:23:51 AM 65.6460 34.0530 345° North 458 527 34,000  Level FlightAware ADS-B
Sun 06:24:52 AM 65.7520 33.9840 345° North 458 527 34,000  Level FlightAware ADS-B
Sun 06:25:28 AM 65.8150 33.9430 345° North 458 527 34,000  Level FlightAware ADS-B
Sun 06:26:04 AM 65.8770 33.9020 345° North 458 527 34,000  Level FlightAware ADS-B
Sun 06:26:52 AM 65.9610 33.8470 345° North 458 527 34,000  Level FlightAware ADS-B
Sun 06:27:28 AM 66.0230 33.8060 345° North 458 527 34,000  Level FlightAware ADS-B
Sun 06:28:04 AM 66.0860 33.7640 345° North 458 527 34,000  Level FlightAware ADS-B
Sun 06:28:40 AM 66.1490 33.7230 345° North 458 527 34,000  Level FlightAware ADS-B
Sun 06:29:04 AM 66.1900 33.6950 345° North 458 527 34,000  Level FlightAware ADS-B
Sun 06:29:52 AM 66.2740 33.6390 345° North 458 527 34,000  Level FlightAware ADS-B
Sun 06:30:40 AM 66.3570 33.5840 345° North 458 527 34,000  Level FlightAware ADS-B
Sun 06:31:28 AM 66.4410 33.5280 345° North 458 527 34,000  Level FlightAware ADS-B
Sun 06:33:10 AM 66.7240 32.8120 315° West 446 513 34,000  Level FlightAware ADS-B
Sun 06:33:37 AM 66.7650 32.7220 319° Northwest 445 512 34,000  Level FlightAware ADS-B
Sun 06:34:22 AM 66.8340 32.5680 319° Northwest 445 512 34,000  Level FlightAware ADS-B
Sun 06:35:28 AM 66.9380 32.3350 319° Northwest 448 516 34,000  Level FlightAware ADS-B
Sun 06:36:04 AM 66.9930 32.2120 319° Northwest 447 514 34,000  Level FlightAware ADS-B
Sun 06:36:34 AM 67.0400 32.1050 318° Northwest 441 507 34,000  Level FlightAware ADS-B
Sun 06:37:10 AM 67.0930 31.9820 318° Northwest 441 507 34,000  Level FlightAware ADS-B
Sun 06:37:45 AM 67.1490 31.8540 318° Northwest 441 507 34,000  Level FlightAware ADS-B
Sun 06:38:14 AM 67.1930 31.7510 318° Northwest 442 509 34,000  Level FlightAware ADS-B
Sun 06:38:55 AM 67.2530 31.6120 318° Northwest 440 506 34,000  Level FlightAware ADS-B
Sun 06:39:30 AM 67.3060 31.4880 318° Northwest 440 506 34,000  Level FlightAware ADS-B
Sun 06:40:16 AM 67.3740 31.3280 318° Northwest 440 506 34,000  Level FlightAware ADS-B
Sun 06:40:51 AM 67.4320 31.1890 317° Northwest 445 512 34,000  Level FlightAware ADS-B
Sun 06:41:28 AM 67.4870 31.0570 317° Northwest 443 510 34,000  Level FlightAware ADS-B
Sun 06:42:04 AM 67.5390 30.9310 317° Northwest 442 509 34,000  Level FlightAware ADS-B
Sun 06:42:45 AM 67.6000 30.7840 317° Northwest 443 510 34,000  Level FlightAware ADS-B
Sun 06:43:23 AM 67.6580 30.6410 317° Northwest 441 507 34,000  Level FlightAware ADS-B
Sun 06:43:56 AM 67.7080 30.5190 317° Northwest 442 509 34,000  Level FlightAware ADS-B
Sun 06:44:27 AM 67.7550 30.4030 317° Northwest 442 509 34,000  Level FlightAware ADS-B
Sun 06:45:00 AM 67.8040 30.2820 317° Northwest 442 509 34,000  Level FlightAware ADS-B
Sun 06:45:39 AM 67.8620 30.1350 316° Northwest 441 507 34,000  Level FlightAware ADS-B
Sun 06:46:40 AM 67.9520 29.9090 317° Northwest 439 505 34,000  Level FlightAware ADS-B
Sun 06:47:16 AM 68.0050 29.7750 317° Northwest 442 509 34,000  Level FlightAware ADS-B
Sun 06:47:51 AM 68.0560 29.6440 316° Northwest 440 506 34,000  Level FlightAware ADS-B
Sun 06:48:23 AM 68.1030 29.5230 316° Northwest 441 507 34,000  Level FlightAware ADS-B
Sun 06:49:07 AM 68.1640 29.3640 316° Northwest 443 510 34,000  Level FlightAware ADS-B
Sun 06:49:44 AM 68.2210 29.2130 316° Northwest 444 511 34,000  Level FlightAware ADS-B
Sun 06:50:19 AM 68.2720 29.0800 316° Northwest 444 511 34,000  Level FlightAware ADS-B
Sun 06:51:16 AM 68.3560 28.8560 316° Northwest 447 514 34,000  Level FlightAware ADS-B
Sun 06:51:56 AM 68.4140 28.7020 316° Northwest 446 513 34,000  Level FlightAware ADS-B
Sun 06:52:41 AM 68.4800 28.5220 315° West 447 514 34,000  Level FlightAware ADS-B
Sun 06:53:12 AM 68.5230 28.3970 313° West 445 512 34,000  Level FlightAware ADS-B
Sun 06:53:53 AM 68.5790 28.2200 311° West 447 514 34,000  Level FlightAware ADS-B
Sun 06:54:21 AM 68.6170 28.1070 313° West 445 512 34,000  Level FlightAware ADS-B
Sun 06:54:58 AM 68.6670 27.9510 311° West 445 512 34,000  Level FlightAware ADS-B
Sun 06:55:29 AM 68.7030 27.8350 311° West 445 512 34,000  Level FlightAware ADS-B
Sun 06:56:01 AM 68.7520 27.6810 311° West 446 513 34,000  Level FlightAware ADS-B
Sun 06:56:46 AM 68.7990 27.5310 311° West 443 510 34,000  Level FlightAware ADS-B
Sun 06:57:26 AM 68.8640 27.3220 311° West 441 507 34,000  Level FlightAware ADS-B
Sun 06:58:22 AM 68.9380 27.0810 311° West 436 502 34,000  Level FlightAware ADS-B
Sun 06:58:53 AM 68.9780 26.9490 310° West 436 502 34,000  Level FlightAware ADS-B
Sun 06:59:28 AM 69.0250 26.7940 310° West 436 502 34,000  Level FlightAware ADS-B
Sun 07:00:04 AM 69.0730 26.6360 310° West 441 507 34,000  Level FlightAware ADS-B
Sun 07:00:45 AM 69.1260 26.4580 310° West 440 506 34,000  Level FlightAware ADS-B
Sun 07:01:26 AM 69.1780 26.2790 309° West 438 504 34,000  Level FlightAware ADS-B
Sun 07:02:07 AM 69.2320 26.0970 310° West 441 507 34,000  Level FlightAware ADS-B
Sun 07:02:37 AM 69.2710 25.9620 309° West 441 507 34,000  Level FlightAware ADS-B
Sun 07:03:12 AM 69.3150 25.8100 309° West 439 505 34,000  Level FlightAware ADS-B
Sun 07:03:47 AM 69.3590 25.6560 309° West 438 504 34,000  Level FlightAware ADS-B
Sun 07:04:19 AM 69.3990 25.5140 309° West 439 505 34,000  Level FlightAware ADS-B
Sun 07:04:54 AM 69.4420 25.3610 309° West 434 499 34,000  Level FlightAware ADS-B
Sun 07:05:35 AM 69.4950 25.1740 309° West 433 498 34,000  Level FlightAware ADS-B
Sun 07:06:12 AM 69.5410 25.0080 308° West 432 497 34,000  Level FlightAware ADS-B
Sun 07:06:44 AM 69.5810 24.8640 309° West 435 501 34,000  Level FlightAware ADS-B
Sun 07:07:19 AM 69.6220 24.7140 308° West 437 503 34,000  Level FlightAware ADS-B
Sun 07:07:35 AM 69.6440 24.6330 308° West 437 503 34,000  Level FlightAware ADS-B
Sun 07:08:19 AM 69.6870 24.4750 308° West 439 505 34,000  Level FlightAware ADS-B
Sun 07:09:15 AM 69.7650 24.1840 308° West 439 505 34,000  Level FlightAware ADS-B
Sun 07:09:47 AM 69.8040 24.0370 308° West 442 509 34,000  Level FlightAware ADS-B
Sun 07:10:24 AM 69.8520 23.8570 308° West 447 514 34,000  Level FlightAware ADS-B
Sun 07:11:28 AM 69.9300 23.5560 307° West 444 511 34,000  Level FlightAware ADS-B
Sun 07:11:44 AM 69.9450 23.5010 309° West 445 512 34,000  Level FlightAware ADS-B
Sun 07:12:51 AM 70.0160 23.1240 299° West 434 499 34,000  Level FlightAware ADS-B
Sun 07:13:20 AM 70.0430 22.9680 297° West 432 497 34,000  Level FlightAware ADS-B
Sun 07:14:06 AM 70.0810 22.7330 295° West 423 487 34,000  Level FlightAware ADS-B
Sun 07:15:11 AM 70.1350 22.3940 295° West 426 490 34,000  Level FlightAware ADS-B
Sun 07:16:01 AM 70.1760 22.1310 295° West 427 491 34,000  Level FlightAware ADS-B
Sun 07:16:45 AM 70.2130 21.8930 295° West 421 484 34,000  Level FlightAware ADS-B
Sun 07:17:46 AM 70.2610 21.5750 294° West 434 499 34,000 103 Level FlightAware ADS-B
Sun 07:18:41 AM 70.3060 21.2750 294° West 435 501 34,200 349 Climbing FlightAware ADS-B
Sun 07:19:12 AM 70.3300 21.1100 293° West 439 505 34,500 1,200 Climbing FlightAware ADS-B
Sun 07:19:51 AM 70.3620 20.8930 294° West 424 488 35,600 857 Climbing FlightAware ADS-B
Sun 07:20:36 AM 70.3980 20.6470 294° West 435 501 35,700 216 Climbing FlightAware ADS-B
Sun 07:21:42 AM 70.4480 20.2930 293° West 440 506 36,000 180 Climbing FlightAware ADS-B
Sun 07:22:16 AM 70.4760 20.0900 293° West 435 501 36,000  Level FlightAware ADS-B
Sun 07:23:16 AM 70.5230 19.7530 293° West 436 502 36,000  Level FlightAware ADS-B
Sun 07:23:46 AM 70.5460 19.5860 293° West 437 503 36,000  Level FlightAware ADS-B
Sun 07:24:16 AM 70.5680 19.4230 292° West 435 501 36,000  Level FlightAware ADS-B
Sun 07:25:01 AM 70.6020 19.1670 292° West 435 501 36,000  Level FlightAware ADS-B
Sun 07:25:43 AM 70.6280 18.9230 288° West 434 499 36,000  Level FlightAware ADS-B
Sun 07:26:52 AM 70.6580 18.5120 283° West 433 498 36,000  Level FlightAware ADS-B
Sun 07:27:31 AM 70.6740 18.2820 282° West 432 497 36,000  Level FlightAware ADS-B
Sun 07:28:41 AM 70.7020 17.8760 282° West 430 495 36,000  Level FlightAware ADS-B
Sun 07:29:26 AM 70.7190 17.6090 281° West 430 495 36,000  Level FlightAware ADS-B
Sun 07:30:11 AM 70.7360 17.3420 281° West 431 496 36,000  Level FlightAware ADS-B
Sun 07:30:45 AM 70.7480 17.1530 281° West 431 496 36,000  Level FlightAware ADS-B
Sun 07:31:37 AM 70.7620 16.9150 280° West 432 497 36,000  Level FlightAware ADS-B
Sun 07:32:19 AM 70.7820 16.5900 281° West 426 490 36,000  Level FlightAware ADS-B
Sun 07:32:44 AM 70.7900 16.4480 280° West 425 489 36,000  Level FlightAware ADS-B
Sun 07:33:24 AM 70.8040 16.2160 281° West 425 489 36,000  Level FlightAware ADS-B
Sun 07:34:01 AM 70.8120 16.0300 278° West 425 489 36,000  Level FlightAware ADS-B
Sun 07:34:37 AM 70.8200 15.8480 278° West 425 489 36,000  Level FlightAware ADS-B
Sun 07:35:09 AM 70.8360 15.6210 282° West 427 491 36,000  Level FlightAware ADS-B
Sun 07:35:49 AM 70.8470 15.4190 280° West 427 491 36,000  Level FlightAware ADS-B
Sun 07:36:13 AM 70.8530 15.2970 279° West 427 491 36,000  Level FlightAware ADS-B
Sun 07:36:34 AM 70.8640 15.0970 280° West 444 511 36,000  Level FlightAware ADS-B
Sun 07:37:29 AM 70.8800 14.7730 279° West 425 489 36,000  Level FlightAware ADS-B
Sun 07:38:09 AM 70.8920 14.5170 278° West 427 491 36,000  Level FlightAware ADS-B
Sun 07:38:44 AM 70.9010 14.3190 278° West 427 491 36,000  Level FlightAware ADS-B
Sun 07:39:14 AM 70.9090 14.1500 278° West 427 491 36,000  Level FlightAware ADS-B
Sun 07:40:06 AM 70.9180 13.8840 276° West 427 491 36,000  Level FlightAware ADS-B
Sun 07:40:42 AM 70.9240 13.7000 276° West 427 491 36,000  Level FlightAware ADS-B
Sun 07:41:07 AM 70.9280 13.5730 276° West 427 491 36,000  Level FlightAware ADS-B
Sun 07:41:58 AM 70.9370 13.3120 276° West 427 491 36,000  Level FlightAware ADS-B
Sun 07:42:59 AM 70.9480 13.0000 276° West 427 491 36,000  Level FlightAware ADS-B
Sun 07:43:47 AM 70.9560 12.7540 276° West 427 491 36,000  Level FlightAware ADS-B
Sun 07:44:23 AM 70.9630 12.5700 277° West 427 491 36,000  Level FlightAware ADS-B
Sun 07:45:23 AM 70.9730 12.2630 276° West 427 491 36,000  Level FlightAware ADS-B
Sun 07:46:11 AM 70.9810 12.0170 276° West 427 491 36,000  Level FlightAware ADS-B
Sun 07:46:47 AM 70.9880 11.8320 277° West 427 491 36,000  Level FlightAware ADS-B
Sun 07:47:24 AM 70.9940 11.6430 276° West 427 491 36,000  Level FlightAware ADS-B
Sun 07:48:00 AM 71.0000 11.4580 276° West 427 491 36,000  Level FlightAware ADS-B
Sun 07:48:24 AM 71.0050 11.3350 277° West 427 491 36,000  Level FlightAware ADS-B
Sun 07:49:00 AM 71.0110 11.1500 276° West 427 491 36,000  Level FlightAware ADS-B
Sun 07:49:12 AM 71.0130 11.0880 276° West 427 491 36,000  Level FlightAware ADS-B
Sun 07:52:00 AM 71.0729 10.1051 281° West  Level Estimated
Sun 07:53:00 AM 71.0931 9.7527 280° West  Level Estimated
Sun 07:54:00 AM 71.1125 9.3995 280° West  Level Estimated
Sun 07:55:00 AM 71.1313 9.0457 279° West  Level Estimated
Sun 07:56:00 AM 71.1495 8.6912 279° West  Level Estimated
Sun 07:57:00 AM 71.1670 8.3360 279° West  Level Estimated
Sun 07:58:00 AM 71.1837 7.9802 278° West  Level Estimated
Sun 07:59:00 AM 71.1999 7.6238 278° West  Level Estimated
Sun 08:00:00 AM 71.2153 7.2669 278° West  Level Estimated
Sun 08:01:00 AM 71.2301 6.9094 277° West  Level Estimated
Sun 08:02:00 AM 71.2441 6.5513 277° West  Level Estimated
Sun 08:03:00 AM 71.2576 6.1928 277° West  Level Estimated
Sun 08:04:00 AM 71.2703 5.8337 276° West  Level Estimated
Sun 08:05:00 AM 71.2823 5.4742 276° West  Level Estimated
Sun 08:06:00 AM 71.2936 5.1143 276° West  Level Estimated
Sun 08:07:00 AM 71.3043 4.7540 275° West  Level Estimated
Sun 08:08:00 AM 71.3142 4.3933 275° West  Level Estimated
Sun 08:09:00 AM 71.3235 4.0322 275° West  Level Estimated
Sun 08:10:00 AM 71.3321 3.6708 274° West  Level Estimated
Sun 08:11:00 AM 71.3400 3.3091 274° West  Level Estimated
Sun 08:12:00 AM 71.3472 2.9471 274° West  Level Estimated
Sun 08:13:00 AM 71.3537 2.5848 273° West  Level Estimated
Sun 08:14:00 AM 71.3595 2.2223 273° West  Level Estimated
Sun 08:15:00 AM 71.3646 1.8597 273° West  Level Estimated
Sun 08:16:00 AM 71.3691 1.4968 272° West  Level Estimated
Sun 08:17:00 AM 71.3728 1.1338 272° West  Level Estimated
Sun 08:18:00 AM 71.3758 0.7706 272° West  Level Estimated
Sun 08:19:00 AM 71.3782 0.4074 271° West  Level Estimated
Sun 08:20:00 AM 71.3798 0.0441 271° West  Level Estimated
Sun 08:21:00 AM 71.3807 -0.3193 271° West  Level Estimated
Sun 08:22:00 AM 71.3810 -0.6827 270° West  Level Estimated
Sun 08:23:00 AM 71.3805 -1.0461 270° West  Level Estimated
Sun 08:24:00 AM 71.3794 -1.4095 270° West  Level Estimated
Sun 08:25:00 AM 71.3775 -1.7728 269° West  Level Estimated
Sun 08:26:00 AM 71.3750 -2.1360 269° West  Level Estimated
Sun 08:27:00 AM 71.3717 -2.4991 269° West  Level Estimated
Sun 08:28:00 AM 71.3678 -2.8621 268° West  Level Estimated
Sun 08:29:00 AM 71.3631 -3.2249 268° West  Level Estimated
Sun 08:30:00 AM 71.3578 -3.5875 268° West  Level Estimated
Sun 08:31:00 AM 71.3518 -3.9499 267° West  Level Estimated
Sun 08:32:00 AM 71.3451 -4.3121 267° West  Level Estimated
Sun 08:33:00 AM 71.3376 -4.6740 267° West  Level Estimated
Sun 08:34:00 AM 71.3295 -5.0356 266° West  Level Estimated
Sun 08:35:00 AM 71.3207 -5.3970 266° West  Level Estimated
Sun 08:36:00 AM 71.3112 -5.7579 265° West  Level Estimated
Sun 08:37:00 AM 71.3011 -6.1185 265° West  Level Estimated
Sun 08:38:00 AM 71.2902 -6.4787 265° West  Level Estimated
Sun 08:39:00 AM 71.2786 -6.8385 264° West  Level Estimated
Sun 08:40:00 AM 71.2664 -7.1979 264° West  Level Estimated
Sun 08:41:00 AM 71.2535 -7.5568 264° West  Level Estimated
Sun 08:42:00 AM 71.2399 -7.9152 263° West  Level Estimated
Sun 08:43:00 AM 71.2256 -8.2731 263° West  Level Estimated
Sun 08:44:00 AM 71.2106 -8.6304 263° West  Level Estimated
Sun 08:45:00 AM 71.1950 -8.9872 262° West  Level Estimated
Sun 08:46:00 AM 71.1786 -9.3434 262° West  Level Estimated
Sun 08:47:00 AM 71.1616 -9.6990 262° West  Level Estimated
Sun 08:48:00 AM 71.1440 -10.0539 261° West  Level Estimated
Sun 08:49:00 AM 71.1256 -10.4082 261° West  Level Estimated
Sun 08:50:00 AM 71.1066 -10.7619 261° West  Level Estimated
Sun 08:51:00 AM 71.0869 -11.1148 260° West  Level Estimated
Sun 08:52:00 AM 71.0666 -11.4670 260° West  Level Estimated
Sun 08:53:00 AM 71.0456 -11.8185 260° West  Level Estimated
Sun 08:54:00 AM 71.0239 -12.1692 259° West  Level Estimated
Sun 08:55:00 AM 71.0016 -12.5192 259° West  Level Estimated
Sun 08:56:00 AM 70.9786 -12.8683 259° West  Level Estimated
Sun 08:57:00 AM 70.9549 -13.2166 258° West  Level Estimated
Sun 08:58:00 AM 70.9307 -13.5641 258° West  Level Estimated
Sun 08:59:00 AM 70.9057 -13.9107 258° West  Level Estimated
Sun 09:00:00 AM 70.8801 -14.2564 257° West  Level Estimated
Sun 09:01:00 AM 70.8539 -14.6012 257° West  Level Estimated
Sun 09:02:00 AM 70.8270 -14.9451 257° West  Level Estimated
Sun 09:03:00 AM 70.7995 -15.2881 256° West  Level Estimated
Sun 09:04:00 AM 70.7714 -15.6301 256° West  Level Estimated
Sun 09:05:00 AM 70.7426 -15.9712 256° West  Level Estimated
Sun 09:06:00 AM 70.7132 -16.3112 255° West  Level Estimated
Sun 09:07:00 AM 70.6831 -16.6502 255° West  Level Estimated
Sun 09:08:00 AM 70.6525 -16.9883 255° West  Level Estimated
Sun 09:09:00 AM 70.6212 -17.3253 255° West  Level Estimated
Sun 09:10:00 AM 70.5893 -17.6612 254° West  Level Estimated
Sun 09:11:00 AM 70.5568 -17.9960 254° West  Level Estimated
Sun 09:12:00 AM 70.5237 -18.3298 254° West  Level Estimated
Sun 09:13:00 AM 70.4899 -18.6625 253° West  Level Estimated
Sun 09:14:00 AM 70.4556 -18.9940 253° West  Level Estimated
Sun 09:15:00 AM 70.4206 -19.3244 253° West  Level Estimated
Sun 09:16:00 AM 70.3851 -19.6537 252° West  Level Estimated
Sun 09:17:00 AM 70.3489 -19.9819 252° West  Level Estimated
Sun 09:18:00 AM 70.3122 -20.3088 252° West  Level Estimated
Sun 09:19:00 AM 70.2749 -20.6346 251° West  Level Estimated
Sun 09:20:00 AM 70.2370 -20.9592 251° West  Level Estimated
Sun 09:21:00 AM 70.1984 -21.2826 251° West  Level Estimated
Sun 09:22:00 AM 70.1594 -21.6048 250° West  Level Estimated
Sun 09:23:00 AM 70.1197 -21.9257 250° West  Level Estimated
Sun 09:24:00 AM 70.0795 -22.2454 250° West  Level Estimated
Sun 09:25:00 AM 70.0387 -22.5639 250° West  Level Estimated
Sun 09:26:00 AM 69.9974 -22.8811 249° West  Level Estimated
Sun 09:27:00 AM 69.9554 -23.1971 249° West  Level Estimated
Sun 09:28:00 AM 69.9130 -23.5118 249° West  Level Estimated
Sun 09:29:00 AM 69.8699 -23.8252 248° West  Level Estimated
Sun 09:30:00 AM 69.8263 -24.1373 248° West  Level Estimated
Sun 09:31:00 AM 69.7822 -24.4481 248° West  Level Estimated
Sun 09:32:00 AM 69.7375 -24.7576 247° West  Level Estimated
Sun 09:33:00 AM 69.6923 -25.0658 247° West  Level Estimated
Sun 09:34:00 AM 69.6465 -25.3727 247° West  Level Estimated
Sun 09:35:00 AM 69.6003 -25.6782 247° West  Level Estimated
Sun 09:36:00 AM 69.5534 -25.9824 246° West  Level Estimated
Sun 09:37:00 AM 69.5061 -26.2853 246° West  Level Estimated
Sun 09:38:00 AM 69.4582 -26.5868 246° West  Level Estimated
Sun 09:39:00 AM 69.4098 -26.8870 245° Southwest  Level Estimated
Sun 09:40:00 AM 69.3609 -27.1859 245° Southwest  Level Estimated
Sun 09:41:00 AM 69.3115 -27.4833 245° Southwest  Level Estimated
Sun 09:42:00 AM 69.2616 -27.7794 245° Southwest  Level Estimated
Sun 09:43:00 AM 69.2112 -28.0742 244° Southwest  Level Estimated
Sun 09:44:00 AM 69.1602 -28.3675 244° Southwest  Level Estimated
Sun 09:45:00 AM 69.1088 -28.6595 244° Southwest  Level Estimated
Sun 09:46:00 AM 69.0569 -28.9502 244° Southwest  Level Estimated
Sun 09:47:00 AM 69.0045 -29.2394 243° Southwest  Level Estimated
Sun 09:48:00 AM 68.9516 -29.5273 243° Southwest  Level Estimated
Sun 09:49:00 AM 68.8982 -29.8137 243° Southwest  Level Estimated
Sun 09:50:00 AM 68.8443 -30.0988 242° Southwest  Level Estimated
Sun 09:51:00 AM 68.7900 -30.3825 242° Southwest  Level Estimated
Sun 09:52:00 AM 68.7352 -30.6649 242° Southwest  Level Estimated
Sun 09:53:00 AM 68.6799 -30.9458 242° Southwest  Level Estimated
Sun 09:54:00 AM 68.6242 -31.2253 241° Southwest  Level Estimated
Sun 09:55:00 AM 68.5680 -31.5035 241° Southwest  Level Estimated
Sun 09:56:00 AM 68.5113 -31.7802 241° Southwest  Level Estimated
Sun 09:57:00 AM 68.4542 -32.0556 241° Southwest  Level Estimated
Sun 09:58:00 AM 68.3967 -32.3295 240° Southwest  Level Estimated
Sun 09:59:00 AM 68.3387 -32.6021 240° Southwest  Level Estimated
Sun 10:00:00 AM 68.2802 -32.8733 240° Southwest  Level Estimated
Sun 10:01:00 AM 68.2213 -33.1431 240° Southwest  Level Estimated
Sun 10:02:00 AM 68.1620 -33.4115 239° Southwest  Level Estimated
Sun 10:03:00 AM 68.1023 -33.6785 239° Southwest  Level Estimated
Sun 10:04:00 AM 68.0421 -33.9441 239° Southwest  Level Estimated
Sun 10:05:00 AM 67.9815 -34.2084 239° Southwest  Level Estimated
Sun 10:06:00 AM 67.9204 -34.4712 238° Southwest  Level Estimated
Sun 10:07:00 AM 67.8590 -34.7327 238° Southwest  Level Estimated
Sun 10:08:00 AM 67.7971 -34.9928 238° Southwest  Level Estimated
Sun 10:09:00 AM 67.7349 -35.2515 238° Southwest  Level Estimated
Sun 10:10:00 AM 67.6722 -35.5089 237° Southwest  Level Estimated
Sun 10:11:00 AM 67.6091 -35.7648 237° Southwest  Level Estimated
Sun 10:12:00 AM 67.5456 -36.0195 237° Southwest  Level Estimated
Sun 10:13:00 AM 67.4818 -36.2727 237° Southwest  Level Estimated
Sun 10:14:00 AM 67.4175 -36.5246 236° Southwest  Level Estimated
Sun 10:15:00 AM 67.3528 -36.7751 236° Southwest  Level Estimated
Sun 10:16:00 AM 67.2878 -37.0243 236° Southwest  Level Estimated
Sun 10:17:00 AM 67.2223 -37.2721 236° Southwest  Level Estimated
Sun 10:18:00 AM 67.1565 -37.5185 236° Southwest  Level Estimated
Sun 10:19:00 AM 67.0903 -37.7636 235° Southwest  Level Estimated
Sun 10:20:00 AM 67.0238 -38.0074 235° Southwest  Level Estimated
Sun 10:21:00 AM 66.9568 -38.2499 235° Southwest  Level Estimated
Sun 10:22:00 AM 66.8895 -38.4910 235° Southwest  Level Estimated
Sun 10:23:00 AM 66.8219 -38.7308 234° Southwest  Level Estimated
Sun 10:24:00 AM 66.7538 -38.9692 234° Southwest  Level Estimated
Sun 10:25:00 AM 66.6854 -39.2063 234° Southwest  Level Estimated
Sun 10:26:00 AM 66.6167 -39.4422 234° Southwest  Level Estimated
Sun 10:27:00 AM 66.5476 -39.6767 234° Southwest  Level Estimated
Sun 10:28:00 AM 66.4782 -39.9099 233° Southwest  Level Estimated
Sun 10:29:00 AM 66.4084 -40.1418 233° Southwest  Level Estimated
Sun 10:30:00 AM 66.3382 -40.3725 233° Southwest  Level Estimated
Sun 10:31:00 AM 66.2678 -40.6018 233° Southwest  Level Estimated
Sun 10:32:00 AM 66.1970 -40.8299 232° Southwest  Level Estimated
Sun 10:33:00 AM 66.1258 -41.0566 232° Southwest  Level Estimated
Sun 10:34:00 AM 66.0544 -41.2822 232° Southwest  Level Estimated
Sun 10:35:00 AM 65.9826 -41.5064 232° Southwest  Level Estimated
Sun 10:36:00 AM 65.9104 -41.7294 232° Southwest  Level Estimated
Sun 10:37:00 AM 65.8380 -41.9511 231° Southwest  Level Estimated
Sun 10:38:00 AM 65.7652 -42.1716 231° Southwest  Level Estimated
Sun 10:39:00 AM 65.6921 -42.3908 231° Southwest  Level Estimated
Sun 10:40:00 AM 65.6188 -42.6088 231° Southwest  Level Estimated
Sun 10:41:00 AM 65.5451 -42.8256 231° Southwest  Level Estimated
Sun 10:42:00 AM 65.4710 -43.0411 230° Southwest  Level Estimated
Sun 10:43:00 AM 65.3967 -43.2554 230° Southwest  Level Estimated
Sun 10:44:00 AM 65.3221 -43.4685 230° Southwest  Level Estimated
Sun 10:45:00 AM 65.2472 -43.6804 230° Southwest  Level Estimated
Sun 10:46:00 AM 65.1720 -43.8911 230° Southwest  Level Estimated
Sun 10:47:00 AM 65.0965 -44.1006 229° Southwest  Level Estimated
Sun 10:48:00 AM 65.0207 -44.3089 229° Southwest  Level Estimated
Sun 10:49:00 AM 64.9446 -44.5161 229° Southwest  Level Estimated
Sun 10:50:00 AM 64.8683 -44.7220 229° Southwest  Level Estimated
Sun 10:51:00 AM 64.7916 -44.9268 229° Southwest  Level Estimated
Sun 10:52:00 AM 64.7147 -45.1305 229° Southwest  Level Estimated
Sun 10:53:00 AM 64.6375 -45.3329 228° Southwest  Level Estimated
Sun 10:54:00 AM 64.5600 -45.5342 228° Southwest  Level Estimated
Sun 10:55:00 AM 64.4822 -45.7344 228° Southwest  Level Estimated
Sun 10:56:00 AM 64.4042 -45.9335 228° Southwest  Level Estimated
Sun 10:57:00 AM 64.3259 -46.1314 228° Southwest  Level Estimated
Sun 10:58:00 AM 64.2474 -46.3282 227° Southwest  Level Estimated
Sun 10:59:00 AM 64.1685 -46.5238 227° Southwest  Level Estimated
Sun 11:00:00 AM 64.0894 -46.7184 227° Southwest  Level Estimated
Sun 11:01:00 AM 64.0101 -46.9118 227° Southwest  Level Estimated
Sun 11:02:00 AM 63.9305 -47.1042 227° Southwest  Level Estimated
Sun 11:03:00 AM 63.8507 -47.2955 227° Southwest  Level Estimated
Sun 11:04:00 AM 63.7706 -47.4856 226° Southwest  Level Estimated
Sun 11:05:00 AM 63.6902 -47.6748 226° Southwest  Level Estimated
Sun 11:06:00 AM 63.6096 -47.8628 226° Southwest  Level Estimated
Sun 11:06:43 AM 63.1970 -49.6040 226° Southwest 407 468 36,000  Level FlightAware ADS-B
Sun 11:07:00 AM 63.5288 -48.0498 226° Southwest  Level Estimated
Sun 11:07:26 AM 63.1400 -49.7200 223° Southwest 406 467 36,000  Level FlightAware ADS-B
Sun 11:08:01 AM 63.0890 -49.8230 222° Southwest 409 471 36,000  Level FlightAware ADS-B
Sun 11:08:38 AM 63.0380 -49.9240 222° Southwest 410 472 36,000  Level FlightAware ADS-B
Sun 11:09:11 AM 62.9920 -50.0190 223° Southwest 408 470 36,000  Level FlightAware ADS-B
Sun 11:10:16 AM 62.9140 -50.2150 229° Southwest 407 468 36,000  Level FlightAware ADS-B
Sun 11:10:59 AM 62.8600 -50.3510 229° Southwest 407 468 36,000  Level FlightAware ADS-B
Sun 11:11:42 AM 62.8120 -50.4710 229° Southwest 408 470 36,000  Level FlightAware ADS-B
Sun 11:12:50 AM 62.7220 -50.6910 228° Southwest 408 470 36,000  Level FlightAware ADS-B
Sun 11:13:33 AM 62.6670 -50.8270 229° Southwest 411 473 36,000  Level FlightAware ADS-B
Sun 11:14:37 AM 62.5930 -51.0060 228° Southwest 413 475 36,000  Level FlightAware ADS-B
Sun 11:15:34 AM 62.5120 -51.2010 228° Southwest 416 479 36,000  Level FlightAware ADS-B
Sun 11:16:14 AM 62.4610 -51.3220 228° Southwest 416 479 36,000  Level FlightAware ADS-B
Sun 11:16:26 AM 62.4470 -51.3560 228° Southwest 416 479 36,000  Level FlightAware ADS-B
Sun 11:17:42 AM 62.3480 -51.5880 227° Southwest 416 479 36,000  Level FlightAware ADS-B
Sun 11:18:21 AM 62.2960 -51.7110 228° Southwest 416 479 36,000  Level FlightAware ADS-B
Sun 11:18:50 AM 62.2590 -51.7980 228° Southwest 416 479 36,000  Level FlightAware ADS-B
Sun 11:19:18 AM 62.2220 -51.8820 227° Southwest 414 476 36,000  Level FlightAware ADS-B
Sun 11:19:55 AM 62.1750 -51.9910 227° Southwest 413 475 36,000  Level FlightAware ADS-B
Sun 11:20:42 AM 62.1170 -52.1240 227° Southwest 414 476 36,000  Level FlightAware ADS-B
Sun 11:20:51 AM 62.1010 -52.1610 227° Southwest 416 479 36,000  Level FlightAware ADS-B
Sun 11:22:27 AM 61.9920 -52.4020 226° Southwest 416 479 36,000  Level FlightAware ADS-B
Sun 11:22:52 AM 61.9640 -52.4650 227° Southwest 416 479 36,000  Level FlightAware ADS-B
Sun 11:23:28 AM 61.9230 -52.5550 226° Southwest 416 479 36,000  Level FlightAware ADS-B
Sun 11:24:05 AM 61.8810 -52.6470 226° Southwest 416 479 36,000  Level FlightAware ADS-B
Sun 11:24:41 AM 61.8400 -52.7370 226° Southwest 416 479 36,000  Level FlightAware ADS-B
Sun 11:25:17 AM 61.7990 -52.8270 226° Southwest 416 479 36,000  Level FlightAware ADS-B
Sun 11:25:53 AM 61.7580 -52.9160 226° Southwest 416 479 36,000  Level FlightAware ADS-B
Sun 11:26:29 AM 61.7170 -53.0060 226° Southwest 416 479 36,000  Level FlightAware ADS-B
Sun 11:27:05 AM 61.6760 -53.0950 226° Southwest 416 479 36,000  Level FlightAware ADS-B
Sun 11:27:54 AM 61.6200 -53.2170 226° Southwest 416 479 36,000  Level FlightAware ADS-B
Sun 11:28:30 AM 61.5800 -53.3060 227° Southwest 416 479 36,000  Level FlightAware ADS-B
Sun 11:29:06 AM 61.5390 -53.3950 226° Southwest 416 479 36,000  Level FlightAware ADS-B
Sun 11:29:42 AM 61.4980 -53.4830 226° Southwest 416 479 36,000  Level FlightAware ADS-B
Sun 11:30:18 AM 61.4570 -53.5720 226° Southwest 416 479 36,000  Level FlightAware ADS-B
Sun 11:30:42 AM 61.4290 -53.6310 225° Southwest 416 479 36,000 41 Level FlightAware ADS-B
Sun 11:33:00 AM 61.2251 -53.9899 220° Southwest  Level Estimated
Sun 11:34:00 AM 61.1362 -54.1444 220° Southwest  Level Estimated
Sun 11:35:00 AM 61.0471 -54.2981 220° Southwest  Level Estimated
Sun 11:36:00 AM 60.9578 -54.4510 220° Southwest  Level Estimated
Sun 11:37:00 AM 60.8684 -54.6030 220° Southwest  Level Estimated
Sun 11:38:00 AM 60.7787 -54.7541 219° Southwest  Level Estimated
Sun 11:39:00 AM 60.6889 -54.9044 219° Southwest  Level Estimated
Sun 11:40:00 AM 60.5990 -55.0539 219° Southwest  Level Estimated
Sun 11:41:00 AM 60.5088 -55.2025 219° Southwest  Level Estimated
Sun 11:42:00 AM 60.4231 -55.3855 227° Southwest  Level FlightAware Approximate
Sun 11:43:00 AM 60.3371 -55.5676 226° Southwest  Level FlightAware Approximate
Sun 11:44:00 AM 60.2508 -55.7487 226° Southwest  Level FlightAware Approximate
Sun 11:45:00 AM 60.1643 -55.9288 226° Southwest  Level FlightAware Approximate
Sun 11:46:00 AM 60.0776 -56.1080 226° Southwest  Level FlightAware Approximate
Sun 11:47:00 AM 59.9906 -56.2863 226° Southwest  Level FlightAware Approximate
Sun 11:48:00 AM 59.9034 -56.4636 226° Southwest  Level FlightAware Approximate
Sun 11:49:00 AM 59.8159 -56.6400 225° Southwest  Level FlightAware Approximate
Sun 11:50:00 AM 59.7282 -56.8154 225° Southwest  Level FlightAware Approximate
Sun 11:51:00 AM 59.6403 -56.9900 225° Southwest  Level FlightAware Approximate
Sun 11:52:00 AM 59.5522 -57.1636 225° Southwest  Level FlightAware Approximate
Sun 11:53:00 AM 59.4638 -57.3363 225° Southwest  Level FlightAware Approximate
Sun 11:54:00 AM 59.3752 -57.5081 225° Southwest  Level FlightAware Approximate
Sun 11:55:00 AM 59.2863 -57.6791 225° Southwest  Level FlightAware Approximate
Sun 11:56:00 AM 59.1973 -57.8491 224° Southwest  Level FlightAware Approximate
Sun 11:57:00 AM 59.1080 -58.0182 224° Southwest  Level FlightAware Approximate
Sun 11:58:00 AM 59.0185 -58.1865 224° Southwest  Level FlightAware Approximate
Sun 11:59:00 AM 58.9288 -58.3539 224° Southwest  Level FlightAware Approximate
Sun 12:00:00 PM 58.8389 -58.5204 224° Southwest  Level FlightAware Approximate
Sun 12:01:00 PM 58.7487 -58.6861 224° Southwest  Level FlightAware Approximate
Sun 12:02:00 PM 58.6584 -58.8509 224° Southwest  Level FlightAware Approximate
Sun 12:03:00 PM 58.5678 -59.0149 223° Southwest  Level FlightAware Approximate
Sun 12:04:00 PM 58.4753 -59.1799 221° Southwest  Level FlightAware Approximate
Sun 12:05:00 PM 58.3806 -59.3342 221° Southwest  Level FlightAware Approximate
Sun 12:06:00 PM 58.2857 -59.4876 220° Southwest  Level FlightAware Approximate
Sun 12:07:00 PM 58.1906 -59.6403 220° Southwest  Level FlightAware Approximate
Sun 12:08:00 PM 58.0953 -59.7921 220° Southwest  Level FlightAware Approximate
Sun 12:09:00 PM 57.9928 -59.9250 215° Southwest  Level Estimated
Sun 12:10:00 PM 57.8901 -60.0572 214° Southwest  Level Estimated
Sun 12:11:00 PM 57.7872 -60.1886 214° Southwest  Level Estimated
Sun 12:12:00 PM 57.6842 -60.3194 214° Southwest  Level Estimated
Sun 12:13:00 PM 57.5811 -60.4493 214° Southwest  Level Estimated
Sun 12:14:00 PM 57.4778 -60.5786 214° Southwest  Level Estimated
Sun 12:15:00 PM 57.3744 -60.7071 214° Southwest  Level Estimated
Sun 12:16:00 PM 57.2708 -60.8349 214° Southwest  Level Estimated
Sun 12:17:00 PM 57.1672 -60.9619 214° Southwest  Level Estimated
Sun 12:18:00 PM 57.0634 -61.0883 214° Southwest  Level Estimated
Sun 12:18:40 PM 57.1000 -61.0167 213° Southwest 500 575 38,000  Level Moncton Center
Sun 12:19:00 PM 56.9595 -61.2140 213° Southwest  Level Estimated
Sun 12:19:40 PM 57.0000 -61.1500 216° Southwest 430 495 38,000  Level Moncton Center
Sun 12:20:00 PM 56.8554 -61.3389 213° Southwest  Level Estimated
Sun 12:21:00 PM 56.7513 -61.4632 213° Southwest  Level Estimated
Sun 12:21:40 PM 56.8000 -61.3833 213° Southwest 430 495 38,000  Level Moncton Center
Sun 12:22:00 PM 56.6470 -61.5868 213° Southwest  Level Estimated
Sun 12:22:16 PM 56.7333 -61.4333 202° Southwest 430 495 38,000  Level Gander Center
Sun 12:23:00 PM 56.5426 -61.7096 213° Southwest  Level Estimated
Sun 12:23:16 PM 56.6333 -61.5500 213° Southwest 430 495 38,000  Level Gander Center
Sun 12:24:16 PM 56.5333 -61.6833 216° Southwest 430 495 38,000  Level Gander Center
Sun 12:25:16 PM 56.4167 -61.8000 209° Southwest 440 506 38,000  Level Gander Center
Sun 12:26:16 PM 56.3167 -61.8833 205° Southwest 430 495 38,000  Level Gander Center
Sun 12:27:16 PM 56.2167 -61.9667 205° Southwest 440 506 38,000  Level Gander Center
Sun 12:28:16 PM 56.1000 -62.0833 209° Southwest 440 506 38,000  Level Gander Center
Sun 12:29:16 PM 56.0000 -62.1833 209° Southwest 440 506 38,000  Level Gander Center
Sun 12:30:16 PM 55.8833 -62.2667 202° Southwest 440 506 38,000  Level Gander Center
Sun 12:31:16 PM 55.7833 -62.3833 213° Southwest 440 506 38,000  Level Gander Center
Sun 12:32:16 PM 55.6667 -62.4667 202° Southwest 440 506 38,000  Level Gander Center
Sun 12:33:16 PM 55.5667 -62.5833 213° Southwest 440 506 38,000  Level Gander Center
Sun 12:34:16 PM 55.4500 -62.6667 202° Southwest 440 506 38,000  Level Gander Center
Sun 12:35:16 PM 55.3500 -62.7500 205° Southwest 440 506 38,000  Level Gander Center
Sun 12:36:16 PM 55.2333 -62.8667 210° Southwest 440 506 38,000  Level Gander Center
Sun 12:37:16 PM 55.1167 -62.9500 202° Southwest 440 506 38,000  Level Gander Center
Sun 12:38:16 PM 55.0000 -63.0667 210° Southwest 440 506 38,000  Level Gander Center
Sun 12:39:16 PM 54.9000 -63.1500 206° Southwest 440 506 38,000  Level Gander Center
Sun 12:40:16 PM 54.7833 -63.2167 198° South 440 506 38,000  Level Gander Center
Sun 12:41:16 PM 54.6833 -63.3333 214° Southwest 440 506 38,000  Level Gander Center
Sun 12:42:16 PM 54.5667 -63.4167 202° Southwest 440 506 38,000  Level Gander Center
Sun 12:43:16 PM 54.4500 -63.5167 206° Southwest 440 506 38,000  Level Gander Center
Sun 12:44:16 PM 54.3500 -63.6000 206° Southwest 440 506 38,000  Level Gander Center
Sun 12:45:42 PM 54.1833 -63.7333 205° Southwest 440 506 38,000  Level Gander Center
Sun 12:46:42 PM 54.0667 -63.8500 210° Southwest 440 506 38,000  Level Gander Center
Sun 12:47:42 PM 53.9667 -63.9333 206° Southwest 440 506 38,000  Level Gander Center
Sun 12:48:42 PM 53.8500 -64.0000 199° South 450 518 38,000  Level Gander Center
Sun 12:49:42 PM 53.7333 -64.1000 207° Southwest 440 506 38,000  Level Gander Center
Sun 12:50:42 PM 53.6333 -64.1833 206° Southwest 450 518 38,000  Level Gander Center
Sun 12:51:42 PM 53.5167 -64.2833 207° Southwest 440 506 38,000  Level Gander Center
Sun 12:52:42 PM 53.4000 -64.4000 211° Southwest 440 506 38,000  Level Gander Center
Sun 12:53:42 PM 53.3000 -64.4667 202° Southwest 430 495 38,000  Level Gander Center
Sun 12:54:42 PM 53.2000 -64.5833 215° Southwest 440 506 38,000  Level Gander Center
Sun 12:55:42 PM 53.1000 -64.6833 211° Southwest 430 495 38,000  Level Gander Center
Sun 12:56:42 PM 53.0000 -64.7500 202° Southwest 430 495 38,000  Level Gander Center
Sun 12:57:42 PM 52.8833 -64.8500 207° Southwest 430 495 38,000  Level Gander Center
Sun 12:58:42 PM 52.7667 -64.9667 211° Southwest 430 495 38,000  Level Gander Center
Sun 12:59:42 PM 52.6667 -65.0333 202° Southwest 430 495 38,000  Level Gander Center
Sun 01:00:42 PM 52.5667 -65.1333 211° Southwest 430 495 38,000  Level Gander Center
Sun 01:01:42 PM 52.4667 -65.2333 211° Southwest 430 495 38,000  Level Gander Center
Sun 01:02:42 PM 52.3667 -65.3000 202° Southwest 440 506 38,000  Level Gander Center
Sun 01:03:42 PM 52.2333 -65.4000 205° Southwest 440 506 38,000  Level Gander Center
Sun 01:04:42 PM 52.1333 -65.5000 212° Southwest 440 506 38,000  Level Gander Center
Sun 01:05:40 PM 52.0333 -65.6000 212° Southwest 440 506 38,000  Level Moncton Center
Sun 01:06:40 PM 51.9167 -65.6667 199° South 440 506 38,000  Level Moncton Center
Sun 01:07:40 PM 51.8000 -65.7500 204° Southwest 450 518 38,000  Level Moncton Center
Sun 01:08:40 PM 51.6833 -65.7667 185° South 450 518 38,000  Level Moncton Center
Sun 01:09:40 PM 51.5333 -65.8167 192° South 450 518 38,000  Level Moncton Center
Sun 01:10:40 PM 51.4167 -65.8667 195° South 450 518 38,000  Level Moncton Center
Sun 01:11:40 PM 51.3000 -65.9167 195° South 450 518 38,000  Level Moncton Center
Sun 01:12:40 PM 51.1833 -65.9500 190° South 450 518 38,000  Level Moncton Center
Sun 01:13:40 PM 51.0500 -66.0000 193° South 450 518 38,000  Level Moncton Center
Sun 01:18:37 PM 50.4560 -66.2010 193° South 450 518 38,000  Level FlightAware ADS-B
Sun 01:19:18 PM 50.3790 -66.2250 191° South 450 518 38,000  Level FlightAware ADS-B
Sun 01:19:54 PM 50.2990 -66.2520 192° South 449 517 38,000  Level FlightAware ADS-B
Sun 01:21:15 PM 50.1410 -66.3240 196° South 441 507 38,000  Level FlightAware ADS-B
Sun 01:21:51 PM 50.0720 -66.3650 201° Southwest 440 506 38,000  Level FlightAware ADS-B
Sun 01:22:28 PM 50.0000 -66.4050 200° South 440 506 38,000  Level FlightAware ADS-B
Sun 01:22:58 PM 49.9420 -66.4370 200° South 440 506 38,000  Level FlightAware ADS-B
Sun 01:24:05 PM 49.8150 -66.5080 200° South 441 507 38,000  Level FlightAware ADS-B
Sun 01:24:34 PM 49.7600 -66.5390 200° South 443 510 38,000  Level FlightAware ADS-B
Sun 01:25:06 PM 49.6960 -66.5740 199° South 443 510 38,000  Level FlightAware ADS-B
Sun 01:25:46 PM 49.6200 -66.6160 200° South 442 509 38,000  Level FlightAware ADS-B
Sun 01:26:18 PM 49.5590 -66.6500 200° South 440 506 38,000  Level FlightAware ADS-B
Sun 01:26:50 PM 49.4970 -66.6840 200° South 439 505 38,000  Level FlightAware ADS-B
Sun 01:27:20 PM 49.4400 -66.7150 199° South 438 504 38,000  Level FlightAware ADS-B
Sun 01:28:02 PM 49.3610 -66.7580 200° South 438 504 38,000  Level FlightAware ADS-B
Sun 01:28:37 PM 49.2940 -66.7940 199° South 439 505 38,000  Level FlightAware ADS-B
Sun 01:29:07 PM 49.2360 -66.8260 200° South 440 506 38,000  Level FlightAware ADS-B
Sun 01:29:46 PM 49.1610 -66.8670 200° South 440 506 38,000  Level FlightAware ADS-B
Sun 01:30:23 PM 49.0930 -66.9040 200° South 441 507 38,000  Level FlightAware ADS-B
Sun 01:31:02 PM 49.0180 -66.9440 199° South 440 506 38,000  Level FlightAware ADS-B
Sun 01:31:25 PM 48.9720 -66.9680 199° South 440 506 38,000  Level FlightAware ADS-B
Sun 01:32:41 PM 48.8260 -67.0460 199° South 438 504 38,000  Level FlightAware ADS-B
Sun 01:33:18 PM 48.7560 -67.0840 200° South 437 503 38,000  Level FlightAware ADS-B
Sun 01:33:54 PM 48.6870 -67.1200 199° South 436 502 38,000  Level FlightAware ADS-B
Sun 01:34:31 PM 48.6170 -67.1580 200° South 436 502 38,000  Level FlightAware ADS-B
Sun 01:35:38 PM 48.4890 -67.2250 199° South 435 501 38,000  Level FlightAware ADS-B
Sun 01:36:23 PM 48.4020 -67.2700 199° South 438 504 38,000  Level FlightAware ADS-B
Sun 01:36:56 PM 48.3400 -67.3030 199° South 440 506 38,000  Level FlightAware ADS-B
Sun 01:37:30 PM 48.2750 -67.3370 199° South 441 507 38,000  Level FlightAware ADS-B
Sun 01:38:05 PM 48.2070 -67.3720 199° South 440 506 38,000  Level FlightAware ADS-B
Sun 01:39:12 PM 48.0780 -67.4390 199° South 440 506 38,000  Level FlightAware ADS-B
Sun 01:40:24 PM 47.9410 -67.5100 199° South 439 505 38,000  Level FlightAware ADS-B
Sun 01:40:59 PM 47.8760 -67.5420 198° South 438 504 38,000  Level FlightAware ADS-B
Sun 01:41:34 PM 47.8170 -67.5730 199° South 438 504 38,000  Level FlightAware ADS-B
Sun 01:42:14 PM 47.8190 -67.5720 19° North 438 504 38,000  Level FlightAware ADS-B
Sun 01:43:11 PM 47.6222 -67.6719 199° South 432 497 38,000  Level FlightAware ADS-B
Sun 01:43:57 PM 47.5342 -67.7166 199° South 435 501 38,000  Level FlightAware ADS-B
Sun 01:44:50 PM 47.4350 -67.7660 199° South 438 504 38,000  Level FlightAware ADS-B
Sun 01:45:52 PM 47.3340 -67.8150 198° South 438 504 38,000  Level FlightAware ADS-B
Sun 01:46:27 PM 47.2500 -67.8590 200° South 444 511 38,000  Level FlightAware ADS-B
Sun 01:47:05 PM 47.1740 -67.8970 199° South 443 510 38,000  Level FlightAware ADS-B
Sun 01:48:02 PM 47.0620 -67.9530 199° South 445 512 38,000  Level FlightAware ADS-B
Sun 01:49:02 PM 46.9460 -68.0100 199° South 446 513 38,000  Level FlightAware ADS-B
Sun 01:49:35 PM 46.8820 -68.0420 199° South 445 512 38,000  Level FlightAware ADS-B
Sun 01:50:07 PM 46.8180 -68.0730 198° South 445 512 38,000  Level FlightAware ADS-B
Sun 01:50:48 PM 46.7430 -68.1100 199° South 445 512 38,000  Level FlightAware ADS-B
Sun 01:51:23 PM 46.6690 -68.1400 196° South 446 513 38,000  Level FlightAware ADS-B
Sun 01:51:55 PM 46.6060 -68.1650 195° South 448 516 38,000  Level FlightAware ADS-B
Sun 01:52:30 PM 46.5360 -68.1940 196° South 449 517 38,000  Level FlightAware ADS-B
Sun 01:53:00 PM 46.4750 -68.2190 196° South 450 518 38,000  Level FlightAware ADS-B
Sun 01:53:58 PM 46.3580 -68.2670 196° South 448 516 38,000  Level FlightAware ADS-B
Sun 01:54:50 PM 46.2600 -68.3070 196° South 446 513 38,000  Level FlightAware ADS-B
Sun 01:55:40 PM 46.1555 -68.3503 196° South 448 516 38,000  Level FlightAware ADS-B
Sun 01:56:12 PM 46.1300 -68.3608 196° South 450 518 38,000  Level FlightAware ADS-B
Sun 01:56:44 PM 46.0279 -68.4024 196° South 450 518 38,000  Level FlightAware ADS-B
Sun 01:57:26 PM 45.9454 -68.4360 196° South 451 519 38,000  Level FlightAware ADS-B
Sun 01:58:28 PM 45.8192 -68.4869 196° South 451 519 38,000  Level FlightAware ADS-B
Sun 01:59:10 PM 45.7365 -68.5202 196° South 453 521 38,000  Level FlightAware ADS-B (EHTW / ENS)
Sun 01:59:51 PM 45.6530 -68.5538 196° South 455 524 38,000  Level FlightAware ADS-B (EHTW / ENS)
Sun 02:00:34 PM 45.5776 -68.5840 196° South 453 521 38,000  Level FlightAware ADS-B (EHTW / ENS)
Sun 02:01:13 PM 45.4883 -68.6197 196° South 452 520 38,000  Level FlightAware ADS-B
Sun 02:01:49 PM 45.4153 -68.6487 196° South 453 521 38,000  Level FlightAware ADS-B
Sun 02:02:23 PM 45.3428 -68.6774 196° South 452 520 38,000  Level FlightAware ADS-B
Sun 02:02:57 PM 45.2798 -68.7023 196° South 453 521 38,000  Level FlightAware ADS-B
Sun 02:03:27 PM 45.2310 -68.7216 196° South 457 526 38,000  Level FlightAware ADS-B
Sun 02:03:59 PM 45.1540 -68.7519 196° South 460 529 38,000  Level FlightAware ADS-B (EHTW / ENS)
Sun 02:04:30 PM 45.0909 -68.7767 195° South 463 533 38,000  Level FlightAware ADS-B (EHTW / ENS)
Sun 02:05:00 PM 45.0299 -68.8007 196° South 465 535 38,000  Level FlightAware ADS-B (EHTW / ENS)
Sun 02:05:41 PM 44.9418 -68.8352 196° South 469 540 38,000  Level FlightAware ADS-B
Sun 02:06:11 PM 44.8879 -68.8563 195° South 470 541 38,000  Level FlightAware ADS-B
Sun 02:06:43 PM 44.8144 -68.8923 199° South 464 534 38,000  Level FlightAware ADS-B
Sun 02:07:14 PM 44.7542 -68.9325 205° Southwest 459 528 38,000  Level FlightAware ADS-B (EHTW / ENS)
Sun 02:07:46 PM 44.6984 -68.9717 207° Southwest 458 527 38,000  Level FlightAware ADS-B (EHTW / ENS)
Sun 02:08:18 PM 44.6340 -69.0161 206° Southwest 458 527 38,000  Level FlightAware ADS-B
Sun 02:08:52 PM 44.5707 -69.0591 206° Southwest 458 527 38,000  Level FlightAware ADS-B (EHTW / ENS)
Sun 02:09:26 PM 44.5084 -69.1013 206° Southwest 459 528 38,000  Level FlightAware ADS-B (EHTW / ENS)
Sun 02:09:56 PM 44.4490 -69.1414 206° Southwest 460 529 38,000  Level FlightAware ADS-B
Sun 02:10:33 PM 44.3752 -69.1912 206° Southwest 458 527 38,000  Level FlightAware ADS-B
Sun 02:11:38 PM 44.2614 -69.2676 206° Southwest 456 525 38,000  Level FlightAware ADS-B
Sun 02:12:15 PM 44.1809 -69.3216 206° Southwest 449 517 38,000  Level FlightAware ADS-B
Sun 02:12:20 PM 44.1828 -69.3203 26° Northeast 456 525 38,000  Level FlightAware ADS-B (EHTW / ENS)
Sun 02:12:55 PM 44.1015 -69.3744 206° Southwest 455 524 38,000  Level FlightAware ADS-B
Sun 02:13:26 PM 44.0463 -69.4111 206° Southwest 445 512 38,000  Level FlightAware ADS-B
Sun 02:13:56 PM 43.9921 -69.4471 206° Southwest 450 518 38,000  Level FlightAware ADS-B
Sun 02:14:26 PM 43.9350 -69.4850 206° Southwest 448 516 38,000  Level FlightAware ADS-B
Sun 02:15:17 PM 43.8360 -69.5505 206° Southwest 446 513 38,000  Level FlightAware ADS-B
Sun 02:15:56 PM 43.7681 -69.5953 205° Southwest 446 513 38,000  Level FlightAware ADS-B
Sun 02:16:35 PM 43.6947 -69.6435 205° Southwest 446 513 38,000  Level FlightAware ADS-B
Sun 02:17:25 PM 43.6018 -69.7044 205° Southwest 444 511 38,000  Level FlightAware ADS-B
Sun 02:18:06 PM 43.5249 -69.7547 205° Southwest 445 512 38,000  Level FlightAware ADS-B
Sun 02:18:31 PM 43.5182 -69.7590 205° Southwest 454 522 38,000  Level FlightAware ADS-B
Sun 02:18:57 PM 43.4285 -69.8103 203° Southwest 454 522 38,000  Level FlightAware ADS-B
Sun 02:19:27 PM 43.3616 -69.8347 195° South 468 539 38,000  Level FlightAware ADS-B
Sun 02:19:45 PM 43.3275 -69.8438 191° South 469 540 38,000  Level FlightAware ADS-B
Sun 02:20:18 PM 43.2550 -69.8559 187° South 473 544 38,000  Level FlightAware ADS-B
Sun 02:20:46 PM 43.2251 -69.8611 187° South 478 550 38,000  Level FlightAware ADS-B
Sun 02:21:33 PM 43.0911 -69.8833 187° South 472 543 38,000  Level FlightAware ADS-B
Sun 02:22:06 PM 43.0166 -69.8943 186° South 473 544 38,000  Level FlightAware ADS-B
Sun 02:22:40 PM 42.9419 -69.9051 186° South 483 556 38,000  Level FlightAware ADS-B
Sun 02:23:13 PM 42.8688 -69.9156 186° South 472 543 38,000  Level FlightAware ADS-B
Sun 02:23:44 PM 42.8014 -69.9254 186° South 472 543 38,000  Level FlightAware ADS-B
Sun 02:24:24 PM 42.7136 -69.9380 186° South 472 543 38,000  Level FlightAware ADS-B
Sun 02:25:04 PM 42.6239 -69.9511 186° South 483 556 38,000  Level FlightAware ADS-B
Sun 02:25:53 PM 42.5154 -69.9666 186° South 487 560 38,000  Level FlightAware ADS-B
Sun 02:26:25 PM 42.4429 -69.9769 186° South 487 560 38,000  Level FlightAware ADS-B
Sun 02:27:05 PM 42.3530 -69.9898 186° South 489 563 38,000  Level FlightAware ADS-B
Sun 02:27:36 PM 42.2833 -69.9997 186° South 483 556 38,000  Level FlightAware ADS-B
Sun 02:27:45 PM 42.2641 -70.0024 186° South 490 564 38,000  Level FlightAware ADS-B
Sun 02:28:21 PM 42.1877 -70.0201 190° South 478 550 38,000  Level FlightAware ADS-B
Sun 02:28:52 PM 42.1312 -70.0417 196° South 470 541 38,000  Level FlightAware ADS-B
Sun 02:29:23 PM 42.0574 -70.0811 202° Southwest 462 532 38,000  Level FlightAware ADS-B
Sun 02:29:40 PM 42.0265 -70.1020 207° Southwest 458 527 38,000  Level FlightAware ADS-B
Sun 02:30:17 PM 41.9691 -70.1481 211° Southwest 447 514 38,000  Level FlightAware ADS-B
Sun 02:30:54 PM 41.9017 -70.2175 217° Southwest 437 503 38,000  Level FlightAware ADS-B
Sun 02:31:02 PM 41.8882 -70.2336 222° Southwest 435 501 38,000  Level FlightAware ADS-B
Sun 02:31:46 PM 41.8273 -70.3179 226° Southwest 428 493 38,000  Level FlightAware ADS-B
Sun 02:31:54 PM 41.8170 -70.3329 227° Southwest 428 493 38,000  Level FlightAware ADS-B
Sun 02:32:14 PM 41.7992 -70.3586 227° Southwest 427 491 38,000  Level FlightAware ADS-B
Sun 02:32:45 PM 41.7510 -70.4277 227° Southwest 427 491 38,000  Level FlightAware ADS-B (KBKF)
Sun 02:33:24 PM 41.7033 -70.4970 227° Southwest 428 493 38,000  Level FlightAware ADS-B
Sun 02:33:58 PM 41.6526 -70.5704 227° Southwest 429 494 38,000  Level FlightAware ADS-B (KBKF)
Sun 02:34:03 PM 41.6434 -70.5836 227° Southwest 429 494 38,000  Level FlightAware ADS-B
Sun 02:34:40 PM 41.5934 -70.6560 227° Southwest 427 491 38,000  Level FlightAware ADS-B (KBKF)
Sun 02:35:10 PM 41.5529 -70.7143 227° Southwest 425 489 38,000  Level FlightAware ADS-B (KBKF)
Sun 02:35:40 PM 41.5141 -70.7699 227° Southwest 426 490 38,000  Level FlightAware ADS-B
Sun 02:36:17 PM 41.4646 -70.8414 227° Southwest 426 490 38,000  Level FlightAware ADS-B (KBKF)
Sun 02:36:53 PM 41.4156 -70.9116 227° Southwest 427 491 38,000  Level FlightAware ADS-B
Sun 02:37:27 PM 41.3695 -70.9775 227° Southwest 426 490 38,000  Level FlightAware ADS-B
Sun 02:37:57 PM 41.3292 -71.0349 227° Southwest 425 489 38,000  Level FlightAware ADS-B
Sun 02:38:35 PM 41.3048 -71.0705 228° Southwest 415 478 38,000  Level FlightAware ADS-B
Sun 02:39:06 PM 41.2507 -71.1724 235° Southwest 404 465 38,000  Level FlightAware ADS-B
Sun 02:39:24 PM 41.2353 -71.2120 243° Southwest 394 453 38,000  Level FlightAware ADS-B
Sun 02:39:47 PM 41.2189 -71.2642 247° West 387 445 38,000  Level FlightAware ADS-B
Sun 02:40:17 PM 41.2008 -71.3306 250° West 384 442 38,000  Level FlightAware ADS-B
Sun 02:40:47 PM 41.1823 -71.3967 250° West 382 440 38,000  Level FlightAware ADS-B
Sun 02:41:20 PM 41.1643 -71.4603 249° West 382 440 38,000  Level FlightAware ADS-B
Sun 02:41:51 PM 41.1428 -71.5368 250° West 383 441 38,000  Level FlightAware ADS-B
Sun 02:42:31 PM 41.1212 -71.6130 249° West 383 441 38,000  Level FlightAware ADS-B
Sun 02:43:07 PM 41.1020 -71.6807 249° West 382 440 38,000  Level FlightAware ADS-B (KSNC)
Sun 02:43:42 PM 41.0739 -71.7794 249° West 383 441 38,000  Level FlightAware ADS-B (KBKF)
Sun 02:44:12 PM 41.0546 -71.8469 249° West 382 440 38,000  Level FlightAware ADS-B
Sun 02:44:44 PM 41.0358 -71.9125 249° West 382 440 38,000  Level FlightAware ADS-B (KBKF)
Sun 02:44:54 PM 41.0293 -71.9349 249° West 382 440 38,000  Level FlightAware ADS-B (KSNC)
Sun 02:45:12 PM 41.0144 -71.9718 242° Southwest 400 460 38,000  Level FlightAware ADS-B (KBKF)
Sun 02:45:27 PM 40.9944 -72.0022 229° Southwest 415 478 38,000  Level FlightAware ADS-B
Sun 02:46:01 PM 40.9452 -72.0620 223° Southwest 415 478 38,000  Level FlightAware ADS-B (KSNC)
Sun 02:46:34 PM 40.9003 -72.1168 223° Southwest 414 476 38,000  Level FlightAware ADS-B (KBKF)
Sun 02:47:18 PM 40.8551 -72.1719 223° Southwest 413 475 38,000  Level FlightAware ADS-B (KSNC)
Sun 02:47:57 PM 40.7854 -72.2577 223° Southwest 410 472 38,000  Level FlightAware ADS-B (KSNC)
Sun 02:48:28 PM 40.7430 -72.3107 223° Southwest 411 473 38,000  Level FlightAware ADS-B (KSNC)
Sun 02:48:58 PM 40.6994 -72.3649 223° Southwest 411 473 38,000  Level FlightAware ADS-B (KSNC)
Sun 02:49:36 PM 40.6475 -72.4291 223° Southwest 412 474 38,000  Level FlightAware ADS-B (KSNC)
Sun 02:50:06 PM 40.6084 -72.4775 223° Southwest 413 475 38,000  Level FlightAware ADS-B (KSNC)
Sun 02:50:37 PM 40.5642 -72.5318 223° Southwest 413 475 38,000  Level FlightAware ADS-B (KSNC)
Sun 02:51:27 PM 40.4947 -72.6171 223° Southwest 413 475 38,000  Level FlightAware ADS-B (KSNC)
Sun 02:51:58 PM 40.4520 -72.6695 223° Southwest 411 473 38,000  Level FlightAware ADS-B (KSNC)
Sun 02:52:19 PM 40.4210 -72.7075 223° Southwest 405 466 38,000  Level FlightAware ADS-B (KWWD)
Sun 02:52:58 PM 40.3674 -72.7730 223° Southwest 405 466 38,000  Level FlightAware ADS-B (KWWD)
Sun 02:53:33 PM 40.3212 -72.8292 223° Southwest 410 472 38,000  Level FlightAware ADS-B (KSNC)
Sun 02:54:05 PM 40.2743 -72.8863 223° Southwest 404 465 38,000  Level FlightAware ADS-B (KWWD)
Sun 02:54:24 PM 40.2475 -72.9189 223° Southwest 402 463 38,000  Level FlightAware ADS-B (KWWD)
Sun 02:54:32 PM 40.2451 -72.9218 223° Southwest 408 470 38,000  Level FlightAware ADS-B (KSNC)
Sun 02:54:43 PM 40.2212 -72.9509 223° Southwest 410 472 38,000  Level FlightAware ADS-B (KSNC)
Sun 02:54:58 PM 40.2014 -72.9749 223° Southwest 405 466 38,000  Level FlightAware ADS-B (KWWD)
Sun 02:55:28 PM 40.1824 -72.9980 223° Southwest 411 473 38,000  Level FlightAware ADS-B (KSNC)
Sun 02:55:58 PM 40.1175 -73.0764 223° Southwest 413 475 38,000  Level FlightAware ADS-B (KSNC)
Sun 02:56:40 PM 40.0579 -73.1480 223° Southwest 414 476 38,000  Level FlightAware ADS-B (KWWD)
Sun 02:57:12 PM 40.0083 -73.1965 217° Southwest 430 495 38,000  Level FlightAware ADS-B (KWWD)
Sun 02:57:50 PM 39.9462 -73.2524 215° Southwest 431 496 38,000  Level FlightAware ADS-B (KSNC)
Sun 02:58:21 PM 39.8949 -73.2987 215° Southwest 430 495 38,000  Level FlightAware ADS-B (KSNC)
Sun 02:58:58 PM 39.8368 -73.3511 215° Southwest 430 495 38,000  Level FlightAware ADS-B (KWWD)
Sun 02:59:32 PM 39.7798 -73.4025 215° Southwest 428 493 38,000  Level FlightAware ADS-B (KSNC)
Sun 03:00:12 PM 39.7146 -73.4610 215° Southwest 428 493 38,000  Level FlightAware ADS-B (KWWD)
Sun 03:00:42 PM 39.6656 -73.5051 215° Southwest 418 481 38,000  Level FlightAware ADS-B (KWWD)
Sun 03:01:13 PM 39.6148 -73.5506 215° Southwest 423 487 38,000  Level FlightAware ADS-B (KSNC)
Sun 03:01:45 PM 39.5644 -73.5956 215° Southwest 422 486 38,000  Level FlightAware ADS-B (KSNC)
Sun 03:02:21 PM 39.5063 -73.6475 215° Southwest 415 478 38,000  Level FlightAware ADS-B (KWWD)
Sun 03:02:58 PM 39.4470 -73.7002 214° Southwest 415 478 38,000  Level FlightAware ADS-B (KWWD)
Sun 03:03:30 PM 39.3958 -73.7457 215° Southwest 414 476 38,000  Level FlightAware ADS-B (KWWD)
Sun 03:04:01 PM 39.3468 -73.7893 214° Southwest 412 474 38,000  Level FlightAware ADS-B (KWWD)
Sun 03:04:41 PM 39.2831 -73.8455 214° Southwest 411 473 38,000  Level FlightAware ADS-B (KWWD)
Sun 03:05:11 PM 39.2340 -73.8891 214° Southwest 410 472 38,000  Level FlightAware ADS-B (KWWD)
Sun 03:05:42 PM 39.1872 -73.9304 214° Southwest 410 472 38,000  Level FlightAware ADS-B (KWWD)
Sun 03:06:12 PM 39.1379 -73.9738 214° Southwest 410 472 38,000  Level FlightAware ADS-B (KWWD)
Sun 03:06:42 PM 39.0908 -74.0153 214° Southwest 409 471 38,000  Level FlightAware ADS-B (KWWD)
Sun 03:07:12 PM 39.0424 -74.0578 214° Southwest 410 472 38,000  Level FlightAware ADS-B (KWWD)
Sun 03:07:52 PM 38.9789 -74.1134 214° Southwest 410 472 38,000  Level FlightAware ADS-B (KWWD)
Sun 03:08:31 PM 38.9168 -74.1678 214° Southwest 410 472 38,000  Level FlightAware ADS-B (KWWD)
Sun 03:09:03 PM 38.8686 -74.2100 214° Southwest 410 472 38,000  Level FlightAware ADS-B (KWWD)
Sun 03:09:41 PM 38.8049 -74.2655 214° Southwest 411 473 38,000  Level FlightAware ADS-B (KWWD)
Sun 03:10:22 PM 38.7408 -74.3213 214° Southwest 412 474 38,000  Level FlightAware ADS-B (KWWD)
Sun 03:11:01 PM 38.6779 -74.3758 214° Southwest 412 474 38,000  Level FlightAware ADS-B (KWWD)
Sun 03:11:41 PM 38.6141 -74.4310 214° Southwest 411 473 38,000  Level FlightAware ADS-B (KWWD)
Sun 03:12:12 PM 38.5649 -74.4734 214° Southwest 411 473 38,000  Level FlightAware ADS-B (KWWD)
Sun 03:12:31 PM 38.5683 -74.4705 34° Northeast 417 480 38,000  Level FlightAware ADS-B (EGAA / BFS)
Sun 03:13:18 PM 38.4621 -74.5621 214° Southwest 418 481 38,000  Level FlightAware ADS-B (EGAA / BFS)
Sun 03:14:02 PM 38.3879 -74.6258 214° Southwest 414 476 38,000  Level FlightAware ADS-B (KWWD)
Sun 03:14:32 PM 38.3391 -74.6676 214° Southwest 414 476 38,000  Level FlightAware ADS-B (KWWD)
Sun 03:15:02 PM 38.2906 -74.7092 214° Southwest 414 476 38,000  Level FlightAware ADS-B (KWWD)
Sun 03:15:33 PM 38.2410 -74.7516 214° Southwest 413 475 38,000  Level FlightAware ADS-B (KWWD)
Sun 03:16:11 PM 38.1806 -74.8032 214° Southwest 413 475 38,000  Level FlightAware ADS-B (KWWD)
Sun 03:16:44 PM 38.1266 -74.8489 214° Southwest 413 475 38,000  Level FlightAware ADS-B (KWWD)
Sun 03:17:01 PM 38.0998 -74.8716 214° Southwest 420 483 38,000  Level FlightAware ADS-B (EGAA / BFS)
Sun 03:17:34 PM 38.0474 -74.9164 214° Southwest 413 475 38,000  Level FlightAware ADS-B (KWWD)
Sun 03:17:58 PM 38.0076 -74.9502 214° Southwest 413 475 38,000  Level FlightAware ADS-B (KWWD)
Sun 03:18:33 PM 37.9516 -74.9977 214° Southwest 413 475 38,000  Level FlightAware ADS-B (KWWD)
Sun 03:19:13 PM 37.8870 -75.0522 214° Southwest 412 474 38,000  Level FlightAware ADS-B (KWWD)
Sun 03:19:46 PM 37.8371 -75.0942 214° Southwest 420 483 38,000  Level FlightAware ADS-B (EGAA / BFS)
Sun 03:20:16 PM 37.7865 -75.1368 214° Southwest 420 483 38,000  Level FlightAware ADS-B (EGAA / BFS)
Sun 03:20:51 PM 37.7295 -75.1846 214° Southwest 414 476 38,000  Level FlightAware ADS-B (KWWD)
Sun 03:21:22 PM 37.6787 -75.2273 214° Southwest 422 486 38,000  Level FlightAware ADS-B (KWWD)
Sun 03:22:01 PM 37.6154 -75.2803 214° Southwest 414 476 38,000  Level FlightAware ADS-B (KWWD)
Sun 03:22:43 PM 37.5472 -75.3372 214° Southwest 414 476 38,000  Level FlightAware ADS-B (KWWD)
Sun 03:23:22 PM 37.4835 -75.3904 214° Southwest 422 486 38,000  Level FlightAware ADS-B (KWWD)
Sun 03:23:53 PM 37.4335 -75.4319 213° Southwest 422 486 38,000  Level FlightAware ADS-B (KWWD)
Sun 03:24:24 PM 37.3840 -75.4730 213° Southwest 421 484 38,000  Level FlightAware ADS-B (KWWD)
Sun 03:25:05 PM 37.3170 -75.5285 213° Southwest 413 475 38,000  Level FlightAware ADS-B (KWWD)
Sun 03:25:43 PM 37.2550 -75.5798 213° Southwest 411 473 38,000  Level FlightAware ADS-B (KWWD)
Sun 03:26:16 PM 37.2047 -75.6215 213° Southwest 411 473 38,000  Level FlightAware ADS-B (KWWD)
Sun 03:27:08 PM 37.1189 -75.6921 213° Southwest 419 482 38,000  Level FlightAware ADS-B (KWWD)
Sun 03:27:41 PM 37.0651 -75.7363 213° Southwest 411 473 38,000  Level FlightAware ADS-B (KWWD)
Sun 03:28:21 PM 37.0010 -75.7888 213° Southwest 414 476 38,000  Level FlightAware ADS-B (KWWD)
Sun 03:28:53 PM 36.9439 -75.8221 205° Southwest 433 498 38,000  Level FlightAware ADS-B (KWWD)
Sun 03:29:25 PM 36.8930 -75.8490 203° Southwest 424 488 38,000  Level FlightAware ADS-B
Sun 03:30:39 PM 36.7495 -75.9238 203° Southwest 434 499 38,000  Level FlightAware ADS-B (KWWD)
Sun 03:31:24 PM 36.6830 -75.9570 202° Southwest 434 499 38,000  Level FlightAware ADS-B
Sun 03:31:58 PM 36.6010 -76.0020 204° Southwest 437 503 38,000  Level FlightAware ADS-B
Sun 03:32:35 PM 36.5420 -76.0310 202° Southwest 437 503 38,000  Level FlightAware ADS-B
Sun 03:33:36 PM 36.4450 -76.0800 202° Southwest 437 503 38,000  Level FlightAware ADS-B
Sun 03:34:13 PM 36.3860 -76.1100 202° Southwest 437 503 38,000  Level FlightAware ADS-B
Sun 03:34:37 PM 36.3480 -76.1290 202° Southwest 437 503 38,000  Level FlightAware ADS-B
Sun 03:35:58 PM 36.1502 -76.2370 204° Southwest 438 504 38,000  Level FlightAware ADS-B (KWWD)
Sun 03:38:58 PM 35.8120 -76.4110 203° Southwest 442 509 38,000  Level FlightAware ADS-B
Sun 03:39:59 PM 35.7140 -76.4600 202° Southwest 442 509 38,000  Level FlightAware ADS-B
Sun 03:40:25 PM 35.6720 -76.4810 202° Southwest 442 509 38,000  Level FlightAware ADS-B
Sun 03:40:50 PM 35.6320 -76.5010 202° Southwest 442 509 38,000  Level FlightAware ADS-B
Sun 03:41:28 PM 35.5710 -76.5310 202° Southwest 442 509 38,000  Level FlightAware ADS-B
Sun 03:42:01 PM 35.4670 -76.5880 204° Southwest 438 504 38,000  Level FlightAware ADS-B
Sun 03:42:38 PM 35.3960 -76.6240 202° Southwest 437 503 38,000  Level FlightAware ADS-B
Sun 03:43:07 PM 35.3420 -76.6510 202° Southwest 436 502 38,000  Level FlightAware ADS-B
Sun 03:43:50 PM 35.2600 -76.6920 202° Southwest 437 503 38,000  Level FlightAware ADS-B
Sun 03:44:22 PM 35.2010 -76.7230 203° Southwest 438 504 38,000  Level FlightAware ADS-B
Sun 03:44:57 PM 35.1350 -76.7560 202° Southwest 439 505 38,000  Level FlightAware ADS-B
Sun 03:45:57 PM 35.0210 -76.8130 202° Southwest 439 505 38,000  Level FlightAware ADS-B
Sun 03:46:56 PM 34.9110 -76.8680 202° Southwest 439 505 38,000  Level FlightAware ADS-B
Sun 03:47:31 PM 34.8460 -76.9000 202° Southwest 438 504 38,000  Level FlightAware ADS-B
Sun 03:48:01 PM 34.7910 -76.9280 203° Southwest 438 504 38,000  Level FlightAware ADS-B
Sun 03:49:04 PM 34.6710 -76.9880 202° Southwest 438 504 38,000  Level FlightAware ADS-B
Sun 03:49:44 PM 34.5980 -77.0240 202° Southwest 439 505 38,000  Level FlightAware ADS-B
Sun 03:50:23 PM 34.5240 -77.0610 202° Southwest 439 505 38,000  Level FlightAware ADS-B
Sun 03:51:26 PM 34.4050 -77.1200 202° Southwest 439 505 38,000  Level FlightAware ADS-B
Sun 03:52:02 PM 34.3370 -77.1530 202° Southwest 440 506 38,000  Level FlightAware ADS-B
Sun 03:52:30 PM 34.2830 -77.1800 202° Southwest 440 506 38,000  Level FlightAware ADS-B
Sun 03:53:03 PM 34.2200 -77.2110 202° Southwest 441 507 38,000  Level FlightAware ADS-B
Sun 03:53:35 PM 34.1590 -77.2410 202° Southwest 444 511 38,000  Level FlightAware ADS-B
Sun 03:54:10 PM 34.0940 -77.2730 202° Southwest 444 511 38,000  Level FlightAware ADS-B
Sun 03:55:06 PM 33.9860 -77.3260 202° Southwest 443 510 38,000  Level FlightAware ADS-B
Sun 03:55:36 PM 33.9290 -77.3540 202° Southwest 443 510 38,000  Level FlightAware ADS-B
Sun 03:56:33 PM 33.8230 -77.4050 202° Southwest 442 509 38,000  Level FlightAware ADS-B
Sun 03:57:03 PM 33.7650 -77.4340 203° Southwest 442 509 38,000  Level FlightAware ADS-B
Sun 03:57:36 PM 33.7030 -77.4640 202° Southwest 442 509 38,000  Level FlightAware ADS-B
Sun 03:58:34 PM 33.5930 -77.5170 202° Southwest 443 510 38,000  Level FlightAware ADS-B
Sun 04:00:14 PM 33.4430 -77.5890 202° Southwest 442 509 38,000  Level FlightAware ADS-B
Sun 04:00:48 PM 33.3830 -77.6180 202° Southwest 442 509 38,000  Level FlightAware ADS-B
Sun 04:01:50 PM 33.2710 -77.6670 200° South 445 512 38,000  Level FlightAware ADS-B
Sun 04:02:50 PM 33.1730 -77.7100 200° South 445 512 38,000  Level FlightAware ADS-B
Sun 04:03:26 PM 33.1130 -77.7360 200° South 445 512 38,000  Level FlightAware ADS-B
Sun 04:04:02 PM 33.0540 -77.7620 200° South 445 512 38,000  Level FlightAware ADS-B
Sun 04:04:26 PM 33.0150 -77.7790 200° South 445 512 38,000  Level FlightAware ADS-B
Sun 04:05:03 PM 32.9540 -77.8050 200° South 445 512 38,000  Level FlightAware ADS-B
Sun 04:05:37 PM 32.8980 -77.8300 201° Southwest 445 512 38,000  Level FlightAware ADS-B
Sun 04:06:13 PM 32.8390 -77.8550 200° South 445 512 38,000  Level FlightAware ADS-B
Sun 04:06:50 PM 32.7780 -77.8820 200° South 445 512 38,000  Level FlightAware ADS-B
Sun 04:08:04 PM 32.4406 -77.8739 200° South 473 544 38,000  Level Jacksonville Center
Sun 04:09:04 PM 32.3169 -77.9100 194° South 473 544 38,000  Level Jacksonville Center
Sun 04:10:04 PM 32.2022 -77.9678 203° Southwest 458 527 38,000  Level Jacksonville Center
Sun 04:11:04 PM 32.0853 -78.0208 201° Southwest 452 520 38,000  Level Jacksonville Center
Sun 04:12:04 PM 31.9683 -78.0711 200° South 452 520 38,000  Level Jacksonville Center
Sun 04:13:04 PM 31.8494 -78.1261 201° Southwest 457 526 38,000  Level Jacksonville Center
Sun 04:14:05 PM 31.7300 -78.1739 199° South 457 526 38,000  Level Jacksonville Center
Sun 04:15:04 PM 31.6114 -78.2358 204° Southwest 463 533 38,000  Level Jacksonville Center
Sun 04:16:05 PM 31.4922 -78.2881 200° South 463 533 38,000  Level Jacksonville Center
Sun 04:17:05 PM 31.3750 -78.3403 201° Southwest 463 533 38,000  Level Jacksonville Center
Sun 04:18:04 PM 31.2539 -78.3969 202° Southwest 463 533 38,000  Level Jacksonville Center
Sun 04:19:04 PM 31.1367 -78.4464 200° South 463 533 38,000  Level Jacksonville Center
Sun 04:20:04 PM 31.0172 -78.4981 200° South 463 533 38,000  Level Jacksonville Center
Sun 04:21:04 PM 30.8981 -78.5519 201° Southwest 463 533 38,000  Level Jacksonville Center
Sun 04:22:04 PM 30.7767 -78.6011 199° South 463 533 38,000  Level Jacksonville Center
Sun 04:24:15 PM 30.5289 -78.7119 201° Southwest 470 541 38,000  Level Miami Center
Sun 04:25:15 PM 30.4197 -78.7606 201° Southwest 465 535 38,000  Level Miami Center
Sun 04:26:15 PM 30.2919 -78.8133 200° South 470 541 38,000  Level Miami Center
Sun 04:27:15 PM 30.1725 -78.8664 201° Southwest 476 548 38,000  Level Miami Center
Sun 04:28:15 PM 30.0528 -78.9194 201° Southwest 468 539 38,000  Level Miami Center
Sun 04:29:15 PM 29.9331 -78.9744 202° Southwest 468 539 38,000  Level Miami Center
Sun 04:30:15 PM 29.8072 -79.0317 202° Southwest 473 544 38,000  Level Miami Center
Sun 04:31:15 PM 29.6833 -79.0819 199° South 473 544 38,000  Level Miami Center
Sun 04:32:15 PM 29.5597 -79.1294 198° South 472 543 38,000  Level Miami Center
Sun 04:33:15 PM 29.4378 -79.1817 200° South 472 543 38,000  Level Miami Center
Sun 04:38:12 PM 28.8360 -79.4340 200° South 466 536 38,000  Level FlightAware ADS-B
Sun 04:38:15 PM 28.8290 -79.4370 201° Southwest 466 536 38,000  Level FlightAware ADS-B
Sun 04:39:05 PM 28.7430 -79.4730 200° South 466 536 38,000  Level FlightAware ADS-B
Sun 04:39:53 PM 28.6400 -79.5150 200° South 465 535 38,000  Level FlightAware ADS-B
Sun 04:40:50 PM 28.5120 -79.5690 200° South 463 533 38,000  Level FlightAware ADS-B
Sun 04:41:48 PM 28.3950 -79.6180 200° South 465 535 38,000  Level FlightAware ADS-B
Sun 04:42:49 PM 28.2720 -79.6690 200° South 467 537 38,000  Level FlightAware ADS-B
Sun 04:43:45 PM 28.1560 -79.7170 200° South 469 540 38,000  Level FlightAware ADS-B
Sun 04:44:37 PM 28.0530 -79.7600 200° South 468 539 38,000  Level FlightAware ADS-B
Sun 04:45:34 PM 27.9350 -79.8080 200° South 468 539 38,000  Level FlightAware ADS-B
Sun 04:46:30 PM 27.8210 -79.8550 200° South 468 539 38,000  Level FlightAware ADS-B
Sun 04:47:07 PM 27.7460 -79.8860 200° South 468 539 38,000  Level FlightAware ADS-B
Sun 04:48:01 PM 27.6350 -79.9310 200° South 470 541 38,000  Level FlightAware ADS-B
Sun 04:48:24 PM 27.5870 -79.9510 200° South 470 541 38,000  Level FlightAware ADS-B
Sun 04:49:23 PM 27.4670 -80.0000 200° South 471 542 38,000  Level FlightAware ADS-B
Sun 04:49:47 PM 27.4170 -80.0200 200° South 471 542 38,000  Level FlightAware ADS-B
Sun 04:50:17 PM 27.3550 -80.0460 200° South 472 543 38,000  Level FlightAware ADS-B
Sun 04:51:15 PM 27.2380 -80.0930 200° South 472 543 38,000  Level FlightAware ADS-B
Sun 04:51:59 PM 27.1470 -80.1300 200° South 472 543 38,000  Level FlightAware ADS-B
Sun 04:52:56 PM 27.0290 -80.1780 200° South 472 543 38,000  Level FlightAware ADS-B
Sun 04:53:24 PM 26.9710 -80.2010 199° South 472 543 38,000  Level FlightAware ADS-B
Sun 04:53:56 PM 26.9050 -80.2280 200° South 472 543 38,000  Level FlightAware ADS-B
Sun 04:54:45 PM 26.8060 -80.2680 200° South 471 542 38,000  Level FlightAware ADS-B
Sun 04:55:17 PM 26.7390 -80.2950 200° South 470 541 38,000  Level FlightAware ADS-B
Sun 04:55:47 PM 26.6770 -80.3200 200° South 470 541 38,000  Level FlightAware ADS-B
Sun 04:56:40 PM 26.5700 -80.3630 200° South 471 542 38,000  Level FlightAware ADS-B
Sun 04:57:12 PM 26.5030 -80.3890 199° South 473 544 38,000  Level FlightAware ADS-B
Sun 04:58:06 PM 26.3900 -80.4350 200° South 475 547 38,000  Level FlightAware ADS-B
Sun 04:59:07 PM 26.2640 -80.4850 200° South 474 545 38,000  Level FlightAware ADS-B
Sun 04:59:31 PM 26.2150 -80.5040 199° South 473 544 38,000  Level FlightAware ADS-B
Sun 05:00:27 PM 26.0990 -80.5510 200° South 472 543 38,000  Level FlightAware ADS-B
Sun 05:01:13 PM 26.0060 -80.5870 199° South 471 542 38,000  Level FlightAware ADS-B
Sun 05:02:05 PM 25.8990 -80.6300 200° South 470 541 38,000  Level FlightAware ADS-B
Sun 05:02:55 PM 25.7960 -80.6710 200° South 471 542 38,000  Level FlightAware ADS-B
Sun 05:03:42 PM 25.7020 -80.7190 205° Southwest 463 533 38,000  Level FlightAware ADS-B
Sun 05:04:39 PM 25.6170 -80.8100 224° Southwest 459 528 38,000  Level FlightAware ADS-B
Sun 05:05:17 PM 25.5610 -80.8700 224° Southwest 459 528 38,000  Level FlightAware ADS-B
Sun 05:06:11 PM 25.4800 -80.9570 224° Southwest 460 529 38,000  Level FlightAware ADS-B
Sun 05:07:13 PM 25.3810 -81.0630 224° Southwest 453 521 38,000  Level FlightAware ADS-B
Sun 05:08:08 PM 25.2990 -81.1510 224° Southwest 449 517 38,000  Level FlightAware ADS-B
Sun 05:08:59 PM 25.2220 -81.2330 224° Southwest 448 516 38,000  Level FlightAware ADS-B
Sun 05:09:25 PM 25.1850 -81.2730 224° Southwest 448 516 38,000  Level FlightAware ADS-B
Sun 05:09:56 PM 25.1370 -81.3240 224° Southwest 449 517 38,000  Level FlightAware ADS-B
Sun 05:10:54 PM 25.0520 -81.4150 224° Southwest 449 517 38,000  Level FlightAware ADS-B
Sun 05:11:48 PM 24.9700 -81.5010 224° Southwest 447 514 38,000  Level FlightAware ADS-B
Sun 05:12:42 PM 24.8890 -81.5870 224° Southwest 445 512 38,000  Level FlightAware ADS-B
Sun 05:13:28 PM 24.8220 -81.6590 224° Southwest 445 512 38,000  Level FlightAware ADS-B
Sun 05:14:09 PM 24.7600 -81.7240 224° Southwest 445 512 38,000 -202 Level FlightAware ADS-B
Sun 05:14:57 PM 24.6890 -81.7990 224° Southwest 446 513 37,700 -1,788 Descending FlightAware ADS-B
Sun 05:15:53 PM 24.6040 -81.8890 224° Southwest 459 528 34,900 -2,467 Descending FlightAware ADS-B
Sun 05:16:44 PM 24.5270 -81.9690 223° Southwest 447 514 33,300 -1,886 Descending FlightAware ADS-B
Sun 05:17:38 PM 24.4470 -82.0530 224° Southwest 434 499 31,600 -1,904 Descending FlightAware ADS-B
Sun 05:18:28 PM 24.3750 -82.1280 224° Southwest 425 489 30,000 -1,870 Descending FlightAware ADS-B
Sun 05:18:55 PM 24.3370 -82.1680 224° Southwest 420 483 29,200 -1,800 Descending FlightAware ADS-B
Sun 05:19:28 PM 24.2910 -82.2160 224° Southwest 413 475 28,200 -1,888 Descending FlightAware ADS-B
Sun 05:20:24 PM 24.2140 -82.2970 224° Southwest 408 470 26,400 -1,857 Descending FlightAware ADS-B
Sun 05:20:52 PM 24.1760 -82.3360 223° Southwest 406 467 25,600 -1,674 Descending FlightAware ADS-B
Sun 05:21:50 PM 24.1000 -82.4150 224° Southwest 401 461 24,000 -1,243 Descending FlightAware ADS-B
Sun 05:22:43 PM 24.0250 -82.4770 217° Southwest 399 459 23,300 -416 Descending FlightAware ADS-B
Sun 05:23:31 PM 23.9630 -82.5240 215° Southwest 399 459 23,300  Level FlightAware ADS-B
Sun 05:23:55 PM 23.9330 -82.5480 216° Southwest 399 459 23,300  Level FlightAware ADS-B
Sun 05:24:20 PM 23.9000 -82.5720 214° Southwest 399 459 23,300  Level FlightAware ADS-B
Sun 05:25:20 PM 23.8230 -82.6310 215° Southwest 399 459 23,300  Level FlightAware ADS-B
Sun 05:26:08 PM 23.7620 -82.6780 215° Southwest 399 459 23,300  Level FlightAware ADS-B
Sun 05:30:00 PM 23.3370 -82.5297 162° South  Level Estimated
Sun 05:31:00 PM 23.2271 -82.4915 162° South  Level Estimated
Sun 05:32:00 PM 23.1171 -82.4534 162° South  Level Estimated
Sun 05:33:00 PM 23.0072 -82.4153 162° South  Level Estimated
Sun 05:34:00 PM 22.9891 -82.4091 162° South  Level Estimated
Sun 05:35:00 PM 22.9891 -82.4091 51° Northeast  Level Estimated
Sun 05:36:00 PM 22.9891 -82.4091 51° Northeast  Level Estimated
Sun 05:37:00 PM 22.9891 -82.4091 51° Northeast  Level Estimated
Sun 05:38:00 PM 22.9891 -82.4091 51° Northeast  Level Estimated
Sun 05:39:00 PM 22.9891 -82.4091 51° Northeast  Level Estimated
Sun 05:40:00 PM 22.9891 -82.4091 51° Northeast  Level Estimated
Sun 05:41:00 PM 22.9891 -82.4091 51° Northeast  Level Estimated
Sun 05:42:00 PM 22.9891 -82.4091 51° Northeast  Level Estimated
Sun 05:43:00 PM 22.9891 -82.4091 51° Northeast  Level Estimated
Sun 05:44:00 PM 22.9891 -82.4091 51° Northeast  Level Estimated
Sun 05:45:00 PM 22.9891 -82.4091 51° Northeast  Level Estimated
Sun 05:46:00 PM 22.9891 -82.4091 51° Northeast  Level Estimated
Sun 05:47:00 PM 22.9891 -82.4091 51° Northeast  Level Estimated
Sun 05:48:00 PM 22.9891 -82.4091 51° Northeast  Level Estimated
Sun 05:49:00 PM 22.9891 -82.4091 51° Northeast  Level Estimated
Sun 05:50:00 PM 22.9891 -82.4091 51° Northeast  Level Estimated
Sun 05:51:00 PM 22.9891 -82.4091 51° Northeast  Level Estimated
Sun 05:52:00 PM 22.9891 -82.4091 51° Northeast  Level Estimated
Sun 05:53:00 PM 22.9891 -82.4091 51° Northeast  Level Estimated
Sun 05:54:00 PM 22.9891 -82.4091 51° Northeast  Level Estimated

Login

Don't have an account? Register now (free) for customized features, flight alerts, and more!